NOAA Web Site Link Tides and Currents Home Page Transparent placeholder image

Notice: We are experiencing a wide spread communication outage affecting the availability of water level and meteorological data for some of our stations, as well as several critical bridge clearance measurements. We are diligently working to resolve this data outage. Please direct all questions to tide.predictions@noaa.gov or call (301) 713-2815.

PORTS® Data Listing: 8638610 Sewells Point, VA

CO-OPS RAW PORTS DATA

************************      PRELIMINARY DATA      ************************** 

     THIS RAW DATA HAS NOT BEEN SUBJECT TO THE NATIONAL OCEAN SERVICE'S        
     QUALITY CONTROL OR QUALITY ASSURANCE PROCEDURES AND DOES NOT MEET         
     THE CRITERIA AND STANDARDS OF OFFICIAL NATIONAL OCEAN SERVICE             
     DATA.  IT IS RELEASED FOR LIMITED PUBLIC USE AS PRELIMINARY DATA TO       
     BE USED ONLY WITH APPROPRIATE CAUTION.                                    

************************      PRELIMINARY DATA      ************************** 


       CD   -   Calendar date
       T    -   Time
       TZ   -   Timezone
       PW   -   Predicted water level (feet above MLLW)
       OW   -   Observed water level (feet above MLLW)
       WS   -   Wind speed (knots)
       WD   -   Wind direction (degrees true)
       WG   -   Wind gust (knots)
       AT   -   Air temperature (degrees farenheit)
       WT   -   Water temperature (degrees farenheit)
       AP   -   Air pressure (millibars)
       SA   -   Salinty (PSU - Practical Salinity Units)
       SG   -   Specific gravity
       RH   -   Relative humidity
       AG   -   Air gap (feet)
       VI   -   Visibility (nautical miles)

       ** NOTE **
       A variable that has its data fields filled with "9"s, indicates that
       data was not collected for that sample period.
       **********


STATION NAME: Sewells Point (8638610)
****************************************************************************************************
    CD       T    TZ    PW     OW    WS   WD   WG    AT    WT    AP    SA    SG     RH    AG   VI
****************************************************************************************************
2019/04/18 01:00 EDT    0.42   0.95 -999 -999 -999 -99.9  60.4 1017.4 14.5  1.011 -99.9 -99.99 -9.99
2019/04/18 01:06 EDT    0.35   0.88 -999 -999 -999 -99.9  60.4 1017.3 14.5  1.011 -99.9 -99.99 -9.99
2019/04/18 01:12 EDT    0.28   0.82 -999 -999 -999 -99.9  60.6 1017.4 14.5  1.011 -99.9 -99.99 -9.99
2019/04/18 01:18 EDT    0.22   0.76 -999 -999 -999 -99.9  60.6 1017.3 14.4  1.011 -99.9 -99.99 -9.99
2019/04/18 01:24 EDT    0.16   0.71 -999 -999 -999 -99.9  60.6 1017.4 14.4  1.011 -99.9 -99.99 -9.99
2019/04/18 01:30 EDT    0.10   0.65 -999 -999 -999 -99.9  60.6 1017.5 14.4  1.011 -99.9 -99.99 -9.99
2019/04/18 01:36 EDT    0.05   0.61 -999 -999 -999 -99.9  60.6 1017.6 14.4  1.011 -99.9 -99.99 -9.99
2019/04/18 01:42 EDT   -0.01   0.55 -999 -999 -999 -99.9  60.6 1017.7 14.4  1.011 -99.9 -99.99 -9.99
2019/04/18 01:48 EDT   -0.05   0.50 -999 -999 -999 -99.9  60.6 1017.6 14.3  1.011 -99.9 -99.99 -9.99
2019/04/18 01:54 EDT   -0.10   0.45 -999 -999 -999 -99.9  60.6 1017.4 14.4  1.011 -99.9 -99.99 -9.99
2019/04/18 02:00 EDT   -0.14   0.41 -999 -999 -999 -99.9  60.6 1017.4 14.3  1.011 -99.9 -99.99 -9.99
2019/04/18 02:06 EDT   -0.17   0.38 -999 -999 -999 -99.9  60.6 1017.4 14.4  1.011 -99.9 -99.99 -9.99
2019/04/18 02:12 EDT   -0.21   0.35 -999 -999 -999 -99.9  60.6 1017.4 14.3  1.011 -99.9 -99.99 -9.99
2019/04/18 02:18 EDT   -0.24   0.32 -999 -999 -999 -99.9  60.8 1017.4 14.3  1.011 -99.9 -99.99 -9.99
2019/04/18 02:24 EDT   -0.26   0.30 -999 -999 -999 -99.9  60.8 1017.3 14.3  1.011 -99.9 -99.99 -9.99
2019/04/18 02:30 EDT   -0.28   0.28 -999 -999 -999 -99.9  60.8 1017.2 14.3  1.011 -99.9 -99.99 -9.99
2019/04/18 02:36 EDT   -0.29   0.26 -999 -999 -999 -99.9  60.8 1017.1 14.3  1.011 -99.9 -99.99 -9.99
2019/04/18 02:42 EDT   -0.31   0.25 -999 -999 -999 -99.9  60.8 1017.1 14.3  1.011 -99.9 -99.99 -9.99
2019/04/18 02:48 EDT   -0.31   0.24 -999 -999 -999 -99.9  60.8 1017.0 14.2  1.011 -99.9 -99.99 -9.99
2019/04/18 02:54 EDT   -0.32   0.24 -999 -999 -999 -99.9  60.8 1016.9 14.2  1.011 -99.9 -99.99 -9.99
2019/04/18 03:00 EDT   -0.31   0.24 -999 -999 -999 -99.9  60.8 1016.9 14.2  1.011 -99.9 -99.99 -9.99
2019/04/18 03:06 EDT   -0.31   0.25 -999 -999 -999 -99.9  60.8 1016.9 14.2  1.011 -99.9 -99.99 -9.99
2019/04/18 03:12 EDT   -0.30   0.22 -999 -999 -999 -99.9  60.8 1016.8 14.2  1.011 -99.9 -99.99 -9.99
2019/04/18 03:18 EDT   -0.28   0.24 -999 -999 -999 -99.9  60.8 1016.7 14.2  1.011 -99.9 -99.99 -9.99
2019/04/18 03:24 EDT   -0.26   0.26 -999 -999 -999 -99.9  60.8 1016.8 14.2  1.011 -99.9 -99.99 -9.99
2019/04/18 03:30 EDT   -0.24   0.29 -999 -999 -999 -99.9  60.8 1016.8 14.2  1.011 -99.9 -99.99 -9.99
2019/04/18 03:36 EDT   -0.21   0.30 -999 -999 -999 -99.9  60.8 1016.7 14.2  1.011 -99.9 -99.99 -9.99
2019/04/18 03:42 EDT   -0.18   0.31 -999 -999 -999 -99.9  60.8 1016.6 14.2  1.011 -99.9 -99.99 -9.99
2019/04/18 03:48 EDT   -0.15   0.37 -999 -999 -999 -99.9  60.8 1016.5 14.2  1.011 -99.9 -99.99 -9.99
2019/04/18 03:54 EDT   -0.11   0.39 -999 -999 -999 -99.9  60.8 1016.4 14.2  1.011 -99.9 -99.99 -9.99
2019/04/18 04:00 EDT   -0.07   0.44 -999 -999 -999 -99.9  61.3 1016.3 13.8  1.010 -99.9 -99.99 -9.99
2019/04/18 04:06 EDT   -0.02   0.47 -999 -999 -999 -99.9  61.5 1016.2 13.5  1.010 -99.9 -99.99 -9.99
2019/04/18 04:12 EDT    0.03   0.52 -999 -999 -999 -99.9  61.3 1016.3 13.5  1.010 -99.9 -99.99 -9.99
2019/04/18 04:18 EDT    0.08   0.57 -999 -999 -999 -99.9  61.3 1016.3 13.0  1.010 -99.9 -99.99 -9.99
2019/04/18 04:24 EDT    0.14   0.62 -999 -999 -999 -99.9  61.2 1016.3 13.0  1.010 -99.9 -99.99 -9.99
2019/04/18 04:30 EDT    0.20   0.68 -999 -999 -999 -99.9  61.2 1016.3 12.9  1.010 -99.9 -99.99 -9.99
2019/04/18 04:36 EDT    0.26   0.75 -999 -999 -999 -99.9  61.2 1016.2 12.9  1.010 -99.9 -99.99 -9.99
2019/04/18 04:42 EDT    0.33   0.77 -999 -999 -999 -99.9  61.2 1016.2 12.7  1.010 -99.9 -99.99 -9.99
2019/04/18 04:48 EDT    0.39   0.86 -999 -999 -999 -99.9  61.2 1016.3 12.8  1.010 -99.9 -99.99 -9.99
2019/04/18 04:54 EDT    0.46   0.89 -999 -999 -999 -99.9  61.2 1016.2 12.7  1.010 -99.9 -99.99 -9.99
2019/04/18 05:00 EDT    0.54   0.97 -999 -999 -999 -99.9  61.2 1016.3 12.7  1.010 -99.9 -99.99 -9.99
2019/04/18 05:06 EDT    0.61   1.04 -999 -999 -999 -99.9  61.2 1016.2 12.7  1.010 -99.9 -99.99 -9.99
2019/04/18 05:12 EDT    0.69   1.14 -999 -999 -999 -99.9  61.2 1016.2 12.7  1.010 -99.9 -99.99 -9.99
2019/04/18 05:18 EDT    0.76   1.19 -999 -999 -999 -99.9  61.2 1016.2 12.8  1.010 -99.9 -99.99 -9.99
2019/04/18 05:24 EDT    0.84   1.26 -999 -999 -999 -99.9  61.2 1016.4 12.9  1.010 -99.9 -99.99 -9.99
2019/04/18 05:30 EDT    0.92   1.34 -999 -999 -999 -99.9  61.2 1016.3 12.9  1.010 -99.9 -99.99 -9.99
2019/04/18 05:36 EDT    1.00   1.39 -999 -999 -999 -99.9  61.2 1016.3 12.9  1.010 -99.9 -99.99 -9.99
2019/04/18 05:42 EDT    1.08   1.48 -999 -999 -999 -99.9  61.2 1016.3 12.9  1.010 -99.9 -99.99 -9.99
2019/04/18 05:48 EDT    1.16   1.57 -999 -999 -999 -99.9  61.2 1016.3 13.0  1.010 -99.9 -99.99 -9.99
2019/04/18 05:54 EDT    1.25   1.64 -999 -999 -999 -99.9  61.2 1016.3 13.0  1.010 -99.9 -99.99 -9.99
2019/04/18 06:00 EDT    1.33   1.72 -999 -999 -999 -99.9  61.2 1016.3 13.0  1.010 -99.9 -99.99 -9.99
2019/04/18 06:06 EDT    1.41   1.81 -999 -999 -999 -99.9  61.2 1016.4 13.0  1.010 -99.9 -99.99 -9.99
2019/04/18 06:12 EDT    1.49   1.88 -999 -999 -999 -99.9  61.2 1016.5 12.9  1.010 -99.9 -99.99 -9.99
2019/04/18 06:18 EDT    1.57   2.00 -999 -999 -999 -99.9  61.2 1016.5 12.9  1.010 -99.9 -99.99 -9.99
2019/04/18 06:24 EDT    1.65   2.07 -999 -999 -999 -99.9  61.2 1016.4 12.9  1.010 -99.9 -99.99 -9.99
2019/04/18 06:30 EDT    1.73   2.15 -999 -999 -999 -99.9  61.2 1016.4 12.8  1.010 -99.9 -99.99 -9.99
2019/04/18 06:36 EDT    1.81   2.22 -999 -999 -999 -99.9  61.2 1016.4 12.8  1.010 -99.9 -99.99 -9.99
2019/04/18 06:42 EDT    1.89   2.27 -999 -999 -999 -99.9  61.2 1016.6 12.8  1.010 -99.9 -99.99 -9.99
2019/04/18 06:48 EDT    1.96   2.36 -999 -999 -999 -99.9  61.2 1016.5 12.9  1.010 -99.9 -99.99 -9.99
2019/04/18 06:54 EDT    2.03   2.43 -999 -999 -999 -99.9  61.2 1016.5 13.0  1.010 -99.9 -99.99 -9.99
2019/04/18 07:00 EDT    2.10   2.50 -999 -999 -999 -99.9  61.2 1016.6 13.0  1.010 -99.9 -99.99 -9.99
2019/04/18 07:06 EDT    2.17   2.57 -999 -999 -999 -99.9  61.2 1016.6 13.1  1.010 -99.9 -99.99 -9.99
2019/04/18 07:12 EDT    2.24   2.63 -999 -999 -999 -99.9  61.2 1016.7 13.1  1.010 -99.9 -99.99 -9.99
2019/04/18 07:18 EDT    2.31   2.69 -999 -999 -999 -99.9  61.2 1016.8 13.2  1.010 -99.9 -99.99 -9.99
2019/04/18 07:24 EDT    2.37   2.75 -999 -999 -999 -99.9  61.2 1016.9 13.3  1.010 -99.9 -99.99 -9.99
2019/04/18 07:30 EDT    2.43   2.82 -999 -999 -999 -99.9  61.2 1016.8 13.4  1.010 -99.9 -99.99 -9.99
2019/04/18 07:36 EDT    2.48   2.81 -999 -999 -999 -99.9  61.2 1016.8 13.3  1.010 -99.9 -99.99 -9.99
2019/04/18 07:42 EDT    2.54   2.93 -999 -999 -999 -99.9  61.0 1017.0 13.5  1.010 -99.9 -99.99 -9.99
2019/04/18 07:48 EDT    2.59   2.97 -999 -999 -999 -99.9  61.0 1017.1 13.7  1.010 -99.9 -99.99 -9.99
2019/04/18 07:54 EDT    2.63   3.02 -999 -999 -999 -99.9  61.0 1017.2 13.5  1.010 -99.9 -99.99 -9.99
2019/04/18 08:00 EDT    2.68   3.04 -999 -999 -999 -99.9  60.8 1017.2 13.9  1.011 -99.9 -99.99 -9.99
2019/04/18 08:06 EDT    2.72   3.08 -999 -999 -999 -99.9  60.8 1017.2 13.8  1.010 -99.9 -99.99 -9.99
2019/04/18 08:12 EDT    2.75   3.11 -999 -999 -999 -99.9  60.8 1017.3 13.9  1.011 -99.9 -99.99 -9.99
2019/04/18 08:18 EDT    2.78   3.14 -999 -999 -999 -99.9  60.8 1017.3 13.8  1.010 -99.9 -99.99 -9.99
2019/04/18 08:24 EDT    2.81   3.16 -999 -999 -999 -99.9  60.8 1017.4 13.9  1.010 -99.9 -99.99 -9.99
2019/04/18 08:30 EDT    2.84   3.19 -999 -999 -999 -99.9  61.0 1017.4 13.7  1.010 -99.9 -99.99 -9.99
2019/04/18 08:36 EDT    2.86   3.22 -999 -999 -999 -99.9  60.8 1017.5 14.0  1.011 -99.9 -99.99 -9.99
2019/04/18 08:42 EDT    2.88   3.24 -999 -999 -999 -99.9  60.6 1017.5 14.2  1.011 -99.9 -99.99 -9.99
2019/04/18 08:48 EDT    2.89   3.24 -999 -999 -999 -99.9  60.4 1017.5 14.4  1.011 -99.9 -99.99 -9.99
2019/04/18 08:54 EDT    2.90   3.25 -999 -999 -999 -99.9  60.6 1017.6 14.4  1.011 -99.9 -99.99 -9.99
2019/04/18 09:00 EDT    2.90   3.25 -999 -999 -999 -99.9  60.4 1017.6 14.4  1.011 -99.9 -99.99 -9.99
2019/04/18 09:06 EDT    2.91   3.26 -999 -999 -999 -99.9  60.4 1017.5 14.6  1.011 -99.9 -99.99 -9.99
2019/04/18 09:12 EDT    2.90   3.26 -999 -999 -999 -99.9  60.4 1017.5 14.5  1.011 -99.9 -99.99 -9.99
2019/04/18 09:18 EDT    2.90   3.25 -999 -999 -999 -99.9  60.4 1017.6 14.5  1.011 -99.9 -99.99 -9.99
2019/04/18 09:24 EDT    2.89   3.24 -999 -999 -999 -99.9  60.4 1017.5 14.5  1.011 -99.9 -99.99 -9.99
2019/04/18 09:30 EDT    2.87   3.23 -999 -999 -999 -99.9  60.4 1017.5 14.5  1.011 -99.9 -99.99 -9.99
2019/04/18 09:36 EDT    2.85   3.21 -999 -999 -999 -99.9  60.4 1017.5 14.5  1.011 -99.9 -99.99 -9.99
2019/04/18 09:42 EDT    2.83   3.18 -999 -999 -999 -99.9  60.4 1017.5 14.5  1.011 -99.9 -99.99 -9.99
2019/04/18 09:48 EDT    2.80   3.16 -999 -999 -999 -99.9  60.4 1017.5 14.6  1.011 -99.9 -99.99 -9.99
2019/04/18 09:54 EDT    2.77   3.13 -999 -999 -999 -99.9  60.4 1017.6 14.5  1.011 -99.9 -99.99 -9.99
2019/04/18 10:00 EDT    2.74   3.09 -999 -999 -999 -99.9  60.4 1017.5 14.5  1.011 -99.9 -99.99 -9.99
2019/04/18 10:06 EDT    2.70   3.05 -999 -999 -999 -99.9  60.6 1017.4 14.3  1.011 -99.9 -99.99 -9.99
2019/04/18 10:12 EDT    2.66   3.02 -999 -999 -999 -99.9  60.6 1017.4 14.2  1.011 -99.9 -99.99 -9.99
2019/04/18 10:18 EDT    2.62   3.00 -999 -999 -999 -99.9  60.6 1017.5 14.2  1.011 -99.9 -99.99 -9.99
2019/04/18 10:24 EDT    2.57   2.94 -999 -999 -999 -99.9  60.6 1017.5 14.1  1.011 -99.9 -99.99 -9.99
2019/04/18 10:30 EDT    2.52   2.84 -999 -999 -999 -99.9  60.6 1017.5 14.3  1.011 -99.9 -99.99 -9.99
2019/04/18 10:36 EDT    2.46   2.83 -999 -999 -999 -99.9  60.1 1017.4 14.9  1.011 -99.9 -99.99 -9.99
2019/04/18 10:42 EDT    2.40   2.79 -999 -999 -999 -99.9  60.6 1017.4 14.4  1.011 -99.9 -99.99 -9.99
2019/04/18 10:48 EDT    2.34   2.72 -999 -999 -999 -99.9  60.6 1017.3 14.2  1.011 -99.9 -99.99 -9.99
2019/04/18 10:54 EDT    2.28   2.68 -999 -999 -999 -99.9  60.8 1017.3 14.0  1.011 -99.9 -99.99 -9.99
2019/04/18 11:00 EDT    2.22   2.62 -999 -999 -999 -99.9  60.8 1017.3 14.0  1.011 -99.9 -99.99 -9.99
2019/04/18 11:06 EDT    2.15   2.56 -999 -999 -999 -99.9  60.6 1017.2 14.2  1.011 -99.9 -99.99 -9.99
2019/04/18 11:12 EDT    2.08   2.48 -999 -999 -999 -99.9  60.6 1017.2 14.2  1.011 -99.9 -99.99 -9.99
2019/04/18 11:18 EDT    2.01   2.43 -999 -999 -999 -99.9  60.4 1017.2 14.4  1.011 -99.9 -99.99 -9.99
2019/04/18 11:24 EDT    1.93   2.33 -999 -999 -999 -99.9  60.4 1017.1 14.5  1.011 -99.9 -99.99 -9.99
2019/04/18 11:30 EDT    1.86   2.27 -999 -999 -999 -99.9  60.4 1017.1 14.5  1.011 -99.9 -99.99 -9.99
2019/04/18 11:36 EDT    1.78   2.19 -999 -999 -999 -99.9  60.4 1017.1 14.5  1.011 -99.9 -99.99 -9.99
2019/04/18 11:42 EDT    1.70   2.10 -999 -999 -999 -99.9  60.4 1017.1 14.5  1.011 -99.9 -99.99 -9.99
2019/04/18 11:48 EDT    1.62   2.03 -999 -999 -999 -99.9  60.4 1017.0 14.4  1.011 -99.9 -99.99 -9.99
2019/04/18 11:54 EDT    1.54   1.96 -999 -999 -999 -99.9  60.4 1016.9 14.5  1.011 -99.9 -99.99 -9.99
2019/04/18 12:00 EDT    1.46   1.86 -999 -999 -999 -99.9  60.6 1016.9 14.3  1.011 -99.9 -99.99 -9.99
2019/04/18 12:06 EDT    1.38   1.80 -999 -999 -999 -99.9  60.8 1016.8 14.1  1.011 -99.9 -99.99 -9.99
2019/04/18 12:12 EDT    1.30   1.69 -999 -999 -999 -99.9  60.8 1016.8 14.2  1.011 -99.9 -99.99 -9.99
2019/04/18 12:18 EDT    1.21   1.61 -999 -999 -999 -99.9  60.6 1016.7 14.3  1.011 -99.9 -99.99 -9.99
2019/04/18 12:24 EDT    1.13   1.53 -999 -999 -999 -99.9  61.0 1016.7 14.1  1.011 -99.9 -99.99 -9.99
2019/04/18 12:30 EDT    1.05   1.44 -999 -999 -999 -99.9  61.0 1016.8 14.0  1.011 -99.9 -99.99 -9.99
2019/04/18 12:36 EDT    0.97   1.36 -999 -999 -999 -99.9  61.2 1016.8 13.9  1.010 -99.9 -99.99 -9.99
2019/04/18 12:42 EDT    0.89   1.28 -999 -999 -999 -99.9  61.3 1016.8 13.9  1.010 -99.9 -99.99 -9.99
2019/04/18 12:48 EDT    0.81   1.22 -999 -999 -999 -99.9  61.5 1016.9 13.8  1.010 -99.9 -99.99 -9.99
2019/04/18 12:54 EDT    0.73   1.16 -999 -999 -999 -99.9  61.3 1016.8 13.9  1.010 -99.9 -99.99 -9.99
2019/04/18 13:00 EDT    0.66   1.09 -999 -999 -999 -99.9  61.3 1016.7 13.9  1.010 -99.9 -99.99 -9.99
2019/04/18 13:06 EDT    0.58   1.04 -999 -999 -999 -99.9  61.5 1016.7 13.9  1.010 -99.9 -99.99 -9.99
2019/04/18 13:12 EDT    0.51   0.97 -999 -999 -999 -99.9  61.5 1016.6 13.9  1.010 -99.9 -99.99 -9.99
2019/04/18 13:18 EDT    0.44   0.92 -999 -999 -999 -99.9  61.3 1016.5 13.9  1.010 -99.9 -99.99 -9.99
2019/04/18 13:24 EDT    0.37   0.86 -999 -999 -999 -99.9  61.3 1016.5 13.9  1.010 -99.9 -99.99 -9.99
2019/04/18 13:30 EDT    0.31   0.79 -999 -999 -999 -99.9  61.5 1016.4 13.9  1.010 -99.9 -99.99 -9.99
2019/04/18 13:36 EDT    0.24   0.73 -999 -999 -999 -99.9  61.7 1016.2 13.8  1.010 -99.9 -99.99 -9.99
2019/04/18 13:42 EDT    0.18   0.67 -999 -999 -999 -99.9  61.7 1016.1 13.8  1.010 -99.9 -99.99 -9.99
2019/04/18 13:48 EDT    0.13   0.61 -999 -999 -999 -99.9  61.9 1016.0 13.8  1.010 -99.9 -99.99 -9.99
2019/04/18 13:54 EDT    0.07   0.57 -999 -999 -999 -99.9  61.9 1015.9 13.8  1.010 -99.9 -99.99 -9.99
2019/04/18 14:00 EDT    0.02   0.51 -999 -999 -999 -99.9  62.1 1015.9 13.7  1.010 -99.9 -99.99 -9.99
2019/04/18 14:06 EDT   -0.03   0.46 -999 -999 -999 -99.9  62.6 1016.0 13.7  1.010 -99.9 -99.99 -9.99
2019/04/18 14:12 EDT   -0.07   0.42 -999 -999 -999 -99.9  62.6 1015.8 13.7  1.010 -99.9 -99.99 -9.99
2019/04/18 14:18 EDT   -0.11   0.38 -999 -999 -999 -99.9  62.2 1015.6 13.7  1.010 -99.9 -99.99 -9.99
2019/04/18 14:24 EDT   -0.15   0.34 -999 -999 -999 -99.9  62.2 1015.5 13.7  1.010 -99.9 -99.99 -9.99
2019/04/18 14:30 EDT   -0.18   0.32 -999 -999 -999 -99.9  62.2 1015.4 13.7  1.010 -99.9 -99.99 -9.99
2019/04/18 14:36 EDT   -0.21   0.29 -999 -999 -999 -99.9  62.2 1015.3 13.7  1.010 -99.9 -99.99 -9.99
2019/04/18 14:42 EDT   -0.23   0.27 -999 -999 -999 -99.9  62.4 1015.4 13.7  1.010 -99.9 -99.99 -9.99
2019/04/18 14:48 EDT   -0.25   0.25 -999 -999 -999 -99.9  62.4 1015.2 13.7  1.010 -99.9 -99.99 -9.99
2019/04/18 14:54 EDT   -0.27   0.23 -999 -999 -999 -99.9  62.4 1015.2 13.7  1.010 -99.9 -99.99 -9.99
2019/04/18 15:00 EDT   -0.28   0.22 -999 -999 -999 -99.9  62.4 1015.1 13.7  1.010 -99.9 -99.99 -9.99
2019/04/18 15:06 EDT   -0.28   0.21 -999 -999 -999 -99.9  62.1 1015.0 13.7  1.010 -99.9 -99.99 -9.99
2019/04/18 15:12 EDT   -0.29   0.21 -999 -999 -999 -99.9  61.9 1014.9 13.7  1.010 -99.9 -99.99 -9.99
2019/04/18 15:18 EDT   -0.28   0.21 -999 -999 -999 -99.9  61.9 1014.7 13.7  1.010 -99.9 -99.99 -9.99
2019/04/18 15:24 EDT   -0.28   0.21 -999 -999 -999 -99.9  62.1 1014.5 13.7  1.010 -99.9 -99.99 -9.99
2019/04/18 15:30 EDT   -0.27   0.22 -999 -999 -999 -99.9  62.1 1014.6 13.8  1.010 -99.9 -99.99 -9.99
2019/04/18 15:36 EDT   -0.25   0.24 -999 -999 -999 -99.9  62.2 1014.4 13.7  1.010 -99.9 -99.99 -9.99
2019/04/18 15:42 EDT   -0.23   0.27 -999 -999 -999 -99.9  62.4 1014.2 13.7  1.010 -99.9 -99.99 -9.99
2019/04/18 15:48 EDT   -0.21   0.30 -999 -999 -999 -99.9  62.4 1014.1 13.8  1.010 -99.9 -99.99 -9.99
2019/04/18 15:54 EDT   -0.18   0.33 -999 -999 -999 -99.9  62.8 1014.0 13.7  1.010 -99.9 -99.99 -9.99
2019/04/18 16:00 EDT   -0.14   0.36 -999 -999 -999 -99.9  63.1 1014.0 13.7  1.010 -99.9 -99.99 -9.99
2019/04/18 16:06 EDT   -0.11   0.40 -999 -999 -999 -99.9  63.0 1014.0 13.7  1.010 -99.9 -99.99 -9.99
2019/04/18 16:12 EDT   -0.07   0.44 -999 -999 -999 -99.9  62.4 1014.0 13.7  1.010 -99.9 -99.99 -9.99
2019/04/18 16:18 EDT   -0.02   0.49 -999 -999 -999 -99.9  62.6 1013.9 13.6  1.010 -99.9 -99.99 -9.99
2019/04/18 16:24 EDT    0.03   0.52 -999 -999 -999 -99.9  62.2 1013.9 13.7  1.010 -99.9 -99.99 -9.99
2019/04/18 16:30 EDT    0.08   0.57 -999 -999 -999 -99.9  61.9 1013.8 13.7  1.010 -99.9 -99.99 -9.99
2019/04/18 16:36 EDT    0.14   0.64 -999 -999 -999 -99.9  62.4 1013.7 13.7  1.010 -99.9 -99.99 -9.99
2019/04/18 16:42 EDT    0.20   0.65 -999 -999 -999 -99.9  63.0 1013.7 13.6  1.010 -99.9 -99.99 -9.99
2019/04/18 16:48 EDT    0.26   0.76 -999 -999 -999 -99.9  62.6 1013.7 13.7  1.010 -99.9 -99.99 -9.99
2019/04/18 16:54 EDT    0.33   0.79 -999 -999 -999 -99.9  63.0 1013.7 13.6  1.010 -99.9 -99.99 -9.99
2019/04/18 17:00 EDT    0.39   0.88 -999 -999 -999 -99.9  63.0 1013.6 13.7  1.010 -99.9 -99.99 -9.99
2019/04/18 17:06 EDT    0.47   0.95 -999 -999 -999 -99.9  63.3 1013.6 13.6  1.010 -99.9 -99.99 -9.99
2019/04/18 17:12 EDT    0.54   0.99 -999 -999 -999 -99.9  63.5 1013.4 13.6  1.010 -99.9 -99.99 -9.99
2019/04/18 17:18 EDT    0.62   1.07 -999 -999 -999 -99.9  63.3 1013.4 13.3  1.010 -99.9 -99.99 -9.99
2019/04/18 17:24 EDT    0.70   1.15 -999 -999 -999 -99.9  63.3 1013.3 13.3  1.010 -99.9 -99.99 -9.99
2019/04/18 17:30 EDT    0.78   1.24 -999 -999 -999 -99.9  63.3 1013.2 13.4  1.010 -99.9 -99.99 -9.99
2019/04/18 17:36 EDT    0.86   1.33 -999 -999 -999 -99.9  63.3 1013.2 13.3  1.010 -99.9 -99.99 -9.99
2019/04/18 17:42 EDT    0.94   1.40 -999 -999 -999 -99.9  63.3 1013.2 13.3  1.010 -99.9 -99.99 -9.99
2019/04/18 17:48 EDT    1.03   1.50 -999 -999 -999 -99.9  63.3 1013.0 13.2  1.010 -99.9 -99.99 -9.99
2019/04/18 17:54 EDT    1.11   1.60 -999 -999 -999 -99.9  63.3 1012.9 13.1  1.010 -99.9 -99.99 -9.99
2019/04/18 18:00 EDT    1.20   1.67 -999 -999 -999 -99.9  63.3 1013.0 13.0  1.010 -99.9 -99.99 -9.99
2019/04/18 18:06 EDT    1.29   1.79 -999 -999 -999 -99.9  63.3 1013.1 13.2  1.010 -99.9 -99.99 -9.99
2019/04/18 18:12 EDT    1.38   1.82 -999 -999 -999 -99.9  63.3 1013.1 13.2  1.010 -99.9 -99.99 -9.99
2019/04/18 18:18 EDT    1.46   1.93 -999 -999 -999 -99.9  63.1 1013.0 13.2  1.010 -99.9 -99.99 -9.99
2019/04/18 18:24 EDT    1.55   2.02 -999 -999 -999 -99.9  63.5 1013.0 13.2  1.010 -99.9 -99.99 -9.99
2019/04/18 18:30 EDT    1.64   2.04 -999 -999 -999 -99.9  63.7 1013.1 13.2  1.010 -99.9 -99.99 -9.99
2019/04/18 18:36 EDT    1.73   2.17 -999 -999 -999 -99.9  64.0 1013.1 13.3  1.010 -99.9 -99.99 -9.99
2019/04/18 18:42 EDT    1.81   2.23 -999 -999 -999 -99.9  64.0 1013.0 13.2  1.010 -99.9 -99.99 -9.99
2019/04/18 18:48 EDT    1.90   2.31 -999 -999 -999 -99.9  63.9 1013.0 13.1  1.010 -99.9 -99.99 -9.99
2019/04/18 18:54 EDT    1.98   2.38 -999 -999 -999 -99.9  63.9 1013.1 13.2  1.010 -99.9 -99.99 -9.99
2019/04/18 19:00 EDT    2.07   2.42 -999 -999 -999 -99.9  63.5 1013.0 13.3  1.010 -99.9 -99.99 -9.99
2019/04/18 19:06 EDT    2.15   2.53 -999 -999 -999 -99.9  63.5 1013.0 13.3  1.010 -99.9 -99.99 -9.99
2019/04/18 19:12 EDT    2.23   2.60 -999 -999 -999 -99.9  63.3 1013.0 13.3  1.010 -99.9 -99.99 -9.99
2019/04/18 19:18 EDT    2.31   2.69 -999 -999 -999 -99.9  63.3 1013.1 13.4  1.010 -99.9 -99.99 -9.99
2019/04/18 19:24 EDT    2.38   2.77 -999 -999 -999 -99.9  63.5 1013.1 13.3  1.010 -99.9 -99.99 -9.99
2019/04/18 19:30 EDT    2.46   2.78 -999 -999 -999 -99.9  63.1 1013.2 13.4  1.010 -99.9 -99.99 -9.99
2019/04/18 19:36 EDT    2.53   2.87 -999 -999 -999 -99.9  63.1 1013.3 13.3  1.010 -99.9 -99.99 -9.99
2019/04/18 19:42 EDT    2.60   2.98 -999 -999 -999 -99.9  63.3 1013.3 13.2  1.010 -99.9 -99.99 -9.99
2019/04/18 19:48 EDT    2.66   2.99 -999 -999 -999 -99.9  63.0 1013.3 13.4  1.010 -99.9 -99.99 -9.99
2019/04/18 19:54 EDT    2.73   3.05 -999 -999 -999 -99.9  63.0 1013.3 13.5  1.010 -99.9 -99.99 -9.99
2019/04/18 20:00 EDT    2.78   3.12 -999 -999 -999 -99.9  62.6 1013.3 13.7  1.010 -99.9 -99.99 -9.99
2019/04/18 20:06 EDT    2.84   3.15 -999 -999 -999 -99.9  62.6 1013.4 13.7  1.010 -99.9 -99.99 -9.99
2019/04/18 20:12 EDT    2.89   3.23 -999 -999 -999 -99.9  62.8 1013.5 13.6  1.010 -99.9 -99.99 -9.99
2019/04/18 20:18 EDT    2.94   3.23 -999 -999 -999 -99.9  63.0 1013.4 13.5  1.010 -99.9 -99.99 -9.99
2019/04/18 20:24 EDT    2.99   3.29 -999 -999 -999 -99.9  62.8 1013.5 13.7  1.010 -99.9 -99.99 -9.99
2019/04/18 20:30 EDT    3.03   3.34 -999 -999 -999 -99.9  62.4 1013.5 13.7  1.010 -99.9 -99.99 -9.99
2019/04/18 20:36 EDT    3.07   3.36 -999 -999 -999 -99.9  62.4 1013.6 13.8  1.010 -99.9 -99.99 -9.99
2019/04/18 20:42 EDT    3.10   3.40 -999 -999 -999 -99.9  61.9 1013.7 14.0  1.010 -99.9 -99.99 -9.99
2019/04/18 20:48 EDT    3.13   3.40 -999 -999 -999 -99.9  62.2 1013.9 13.9  1.010 -99.9 -99.99 -9.99
2019/04/18 20:54 EDT    3.16   3.43 -999 -999 -999 -99.9  62.1 1013.9 14.0  1.010 -99.9 -99.99 -9.99
2019/04/18 21:00 EDT    3.18   3.44 -999 -999 -999 -99.9  61.9 1014.0 14.1  1.011 -99.9 -99.99 -9.99
2019/04/18 21:06 EDT    3.20   3.46 -999 -999 -999 -99.9  62.1 1014.1 14.0  1.010 -99.9 -99.99 -9.99
2019/04/18 21:12 EDT    3.21   3.44 -999 -999 -999 -99.9  62.1 1014.1 14.0  1.010 -99.9 -99.99 -9.99
2019/04/18 21:18 EDT    3.22   3.53 -999 -999 -999 -99.9  62.6 1014.1 13.8  1.010 -99.9 -99.99 -9.99
2019/04/18 21:24 EDT    3.22   3.45 -999 -999 -999 -99.9  62.6 1014.2 13.7  1.010 -99.9 -99.99 -9.99
2019/04/18 21:30 EDT    3.22   3.47 -999 -999 -999 -99.9  62.4 1014.2 13.8  1.010 -99.9 -99.99 -9.99
2019/04/18 21:36 EDT    3.22   3.45 -999 -999 -999 -99.9  62.2 1014.2 13.9  1.010 -99.9 -99.99 -9.99
2019/04/18 21:42 EDT    3.21   3.45 -999 -999 -999 -99.9  62.1 1014.3 14.0  1.010 -99.9 -99.99 -9.99
2019/04/18 21:48 EDT    3.20   3.44 -999 -999 -999 -99.9  62.2 1014.3 13.9  1.010 -99.9 -99.99 -9.99
2019/04/18 21:54 EDT    3.18   3.43 -999 -999 -999 -99.9  62.2 1014.3 13.9  1.010 -99.9 -99.99 -9.99
2019/04/18 22:00 EDT    3.16   3.40 -999 -999 -999 -99.9  62.1 1014.2 14.0  1.010 -99.9 -99.99 -9.99
2019/04/18 22:06 EDT    3.14   3.37 -999 -999 -999 -99.9  62.1 1014.1 14.0  1.010 -99.9 -99.99 -9.99
2019/04/18 22:12 EDT    3.11   3.34 -999 -999 -999 -99.9  62.1 1014.1 14.0  1.010 -99.9 -99.99 -9.99
2019/04/18 22:18 EDT    3.07   3.30 -999 -999 -999 -99.9  62.1 1014.1 14.0  1.010 -99.9 -99.99 -9.99
2019/04/18 22:24 EDT    3.04   3.26 -999 -999 -999 -99.9  61.9 1014.0 14.1  1.011 -99.9 -99.99 -9.99
2019/04/18 22:30 EDT    2.99   3.22 -999 -999 -999 -99.9  61.9 1014.1 14.1  1.011 -99.9 -99.99 -9.99
2019/04/18 22:36 EDT    2.95   3.18 -999 -999 -999 -99.9  62.2 1014.0 13.9  1.010 -99.9 -99.99 -9.99
2019/04/18 22:42 EDT    2.90   3.15 -999 -999 -999 -99.9  62.4 1014.1 13.8  1.010 -99.9 -99.99 -9.99
2019/04/18 22:48 EDT    2.85   3.11 -999 -999 -999 -99.9  62.2 1014.2 13.9  1.010 -99.9 -99.99 -9.99
2019/04/18 22:54 EDT    2.79   3.06 -999 -999 -999 -99.9  62.2 1014.3 13.9  1.010 -99.9 -99.99 -9.99
2019/04/18 23:00 EDT    2.73   3.01 -999 -999 -999 -99.9  62.2 1014.3 13.9  1.010 -99.9 -99.99 -9.99
2019/04/18 23:06 EDT    2.67   2.96 -999 -999 -999 -99.9  62.2 1014.3 13.9  1.010 -99.9 -99.99 -9.99
2019/04/18 23:12 EDT    2.60   2.92 -999 -999 -999 -99.9  62.2 1014.4 13.9  1.010 -99.9 -99.99 -9.99
2019/04/18 23:18 EDT    2.54   2.85 -999 -999 -999 -99.9  62.2 1014.5 13.9  1.010 -99.9 -99.99 -9.99
2019/04/18 23:24 EDT    2.47   2.79 -999 -999 -999 -99.9  62.4 1014.4 13.8  1.010 -99.9 -99.99 -9.99
2019/04/18 23:30 EDT    2.39   2.73 -999 -999 -999 -99.9  62.2 1014.4 13.9  1.010 -99.9 -99.99 -9.99
2019/04/18 23:36 EDT    2.32   2.66 -999 -999 -999 -99.9  62.2 1014.4 13.9  1.010 -99.9 -99.99 -9.99
2019/04/18 23:42 EDT    2.24   2.59 -999 -999 -999 -99.9  62.2 1014.4 13.9  1.010 -99.9 -99.99 -9.99
2019/04/18 23:48 EDT    2.16   2.51 -999 -999 -999 -99.9  62.2 1014.4 13.9  1.010 -99.9 -99.99 -9.99
2019/04/18 23:54 EDT    2.07   2.43 -999 -999 -999 -99.9  62.1 1014.4 14.0  1.010 -99.9 -99.99 -9.99
2019/04/19 00:00 EDT    1.99   2.35 -999 -999 -999 -99.9  62.2 1014.4 13.9  1.010 -99.9 -99.99 -9.99
2019/04/19 00:06 EDT    1.91   2.27 -999 -999 -999 -99.9  62.2 1014.4 14.0  1.010 -99.9 -99.99 -9.99
2019/04/19 00:12 EDT    1.82   2.19 -999 -999 -999 -99.9  62.4 1014.3 13.9  1.010 -99.9 -99.99 -9.99
2019/04/19 00:18 EDT    1.73   2.11 -999 -999 -999 -99.9  62.2 1014.3 13.9  1.010 -99.9 -99.99 -9.99
2019/04/19 00:24 EDT    1.64   2.02 -999 -999 -999 -99.9  62.2 1014.2 13.9  1.010 -99.9 -99.99 -9.99
2019/04/19 00:30 EDT    1.55   1.94 -999 -999 -999 -99.9  62.4 1014.1 13.8  1.010 -99.9 -99.99 -9.99
2019/04/19 00:36 EDT    1.47   1.85 -999 -999 -999 -99.9  62.4 1014.0 13.8  1.010 -99.9 -99.99 -9.99
2019/04/19 00:42 EDT    1.38   1.77 -999 -999 -999 -99.9  62.4 1014.0 13.8  1.010 -99.9 -99.99 -9.99
2019/04/19 00:48 EDT    1.29   1.69 -999 -999 -999 -99.9  62.4 1014.0 13.8  1.010 -99.9 -99.99 -9.99
2019/04/19 00:54 EDT    1.20   1.62 -999 -999 -999 -99.9  62.6 1013.9 13.7  1.010 -99.9 -99.99 -9.99
2019/04/19 01:00 EDT    1.11   1.54 -999 -999 -999 -99.9  62.6 1013.8 13.7  1.010 -99.9 -99.99 -9.99
2019/04/19 01:06 EDT    1.02   1.46 -999 -999 -999 -99.9  62.4 1013.8 13.8  1.010 -99.9 -99.99 -9.99
2019/04/19 01:12 EDT    0.94   1.38 -999 -999 -999 -99.9  62.6 1013.7 13.7  1.010 -99.9 -99.99 -9.99
2019/04/19 01:18 EDT    0.85   1.29 -999 -999 -999 -99.9  62.6 1013.6 13.7  1.010 -99.9 -99.99 -9.99
2019/04/19 01:24 EDT    0.77   1.22 -999 -999 -999 -99.9  62.6 1013.6 13.7  1.010 -99.9 -99.99 -9.99
2019/04/19 01:30 EDT    0.68   1.15 -999 -999 -999 -99.9  62.6 1013.6 13.7  1.010 -99.9 -99.99 -9.99
2019/04/19 01:36 EDT    0.60   1.08 -999 -999 -999 -99.9  62.6 1013.5 13.7  1.010 -99.9 -99.99 -9.99
2019/04/19 01:42 EDT    0.52   1.01 -999 -999 -999 -99.9  62.6 1013.5 13.7  1.010 -99.9 -99.99 -9.99
2019/04/19 01:48 EDT    0.45   0.94 -999 -999 -999 -99.9  62.6 1013.3 13.7  1.010 -99.9 -99.99 -9.99
2019/04/19 01:54 EDT    0.37   0.88 -999 -999 -999 -99.9  62.6 1013.1 13.7  1.010 -99.9 -99.99 -9.99
2019/04/19 02:00 EDT    0.30   0.81 -999 -999 -999 -99.9  62.6 1013.0 13.7  1.010 -99.9 -99.99 -9.99
2019/04/19 02:06 EDT    0.23   0.76 -999 -999 -999 -99.9  62.6 1013.0 13.7  1.010 -99.9 -99.99 -9.99
2019/04/19 02:12 EDT    0.17   0.70 -999 -999 -999 -99.9  62.6 1012.9 13.7  1.010 -99.9 -99.99 -9.99
2019/04/19 02:18 EDT    0.11   0.64 -999 -999 -999 -99.9  62.6 1012.9 13.7  1.010 -99.9 -99.99 -9.99
2019/04/19 02:24 EDT    0.05   0.58 -999 -999 -999 -99.9  62.6 1012.8 13.7  1.010 -99.9 -99.99 -9.99
2019/04/19 02:30 EDT   -0.01   0.54 -999 -999 -999 -99.9  62.6 1012.8 13.7  1.010 -99.9 -99.99 -9.99
2019/04/19 02:36 EDT   -0.06   0.49 -999 -999 -999 -99.9  62.6 1012.7 13.7  1.010 -99.9 -99.99 -9.99
2019/04/19 02:42 EDT   -0.11   0.45 -999 -999 -999 -99.9  62.6 1012.7 13.7  1.010 -99.9 -99.99 -9.99
2019/04/19 02:48 EDT   -0.15   0.40 -999 -999 -999 -99.9  62.4 1012.7 13.8  1.010 -99.9 -99.99 -9.99
2019/04/19 02:54 EDT   -0.19   0.36 -999 -999 -999 -99.9  62.4 1012.6 13.8  1.010 -99.9 -99.99 -9.99
2019/04/19 03:00 EDT   -0.23   0.32 -999 -999 -999 -99.9  62.4 1012.6 13.8  1.010 -99.9 -99.99 -9.99
2019/04/19 03:06 EDT   -0.26   0.29 -999 -999 -999 -99.9  62.4 1012.4 13.9  1.010 -99.9 -99.99 -9.99
2019/04/19 03:12 EDT   -0.29   0.26 -999 -999 -999 -99.9  62.4 1012.4 13.9  1.010 -99.9 -99.99 -9.99
2019/04/19 03:18 EDT   -0.31   0.23 -999 -999 -999 -99.9  62.2 1012.3 13.9  1.010 -99.9 -99.99 -9.99
2019/04/19 03:24 EDT   -0.33   0.21 -999 -999 -999 -99.9  62.2 1012.3 13.9  1.010 -99.9 -99.99 -9.99
2019/04/19 03:30 EDT   -0.35   0.20 -999 -999 -999 -99.9  62.2 1012.2 14.0  1.010 -99.9 -99.99 -9.99
2019/04/19 03:36 EDT   -0.36   0.19 -999 -999 -999 -99.9  62.2 1012.1 14.0  1.010 -99.9 -99.99 -9.99
2019/04/19 03:42 EDT   -0.36   0.19 -999 -999 -999 -99.9  62.2 1012.0 14.0  1.010 -99.9 -99.99 -9.99
2019/04/19 03:48 EDT   -0.36   0.20 -999 -999 -999 -99.9  62.2 1012.0 14.0  1.010 -99.9 -99.99 -9.99
2019/04/19 03:54 EDT   -0.36   0.20 -999 -999 -999 -99.9  62.4 1011.9 13.9  1.010 -99.9 -99.99 -9.99
2019/04/19 04:00 EDT   -0.35   0.20 -999 -999 -999 -99.9  62.4 1011.9 13.9  1.010 -99.9 -99.99 -9.99
2019/04/19 04:06 EDT   -0.34   0.21 -999 -999 -999 -99.9  62.4 1011.8 13.9  1.010 -99.9 -99.99 -9.99
2019/04/19 04:12 EDT   -0.32   0.21 -999 -999 -999 -99.9  62.4 1011.8 13.9  1.010 -99.9 -99.99 -9.99
2019/04/19 04:18 EDT   -0.30   0.22 -999 -999 -999 -99.9  62.2 1011.7 14.0  1.010 -99.9 -99.99 -9.99
2019/04/19 04:24 EDT   -0.28   0.25 -999 -999 -999 -99.9  62.1 1011.6 14.1  1.010 -99.9 -99.99 -9.99
2019/04/19 04:30 EDT   -0.25   0.27 -999 -999 -999 -99.9  61.9 1011.5 14.2  1.011 -99.9 -99.99 -9.99
2019/04/19 04:36 EDT   -0.21   0.31 -999 -999 -999 -99.9  61.7 1011.5 14.3  1.011 -99.9 -99.99 -9.99
2019/04/19 04:42 EDT   -0.18   0.34 -999 -999 -999 -99.9  61.9 1011.4 14.2  1.011 -99.9 -99.99 -9.99
2019/04/19 04:48 EDT   -0.13   0.39 -999 -999 -999 -99.9  61.9 1011.4 14.2  1.011 -99.9 -99.99 -9.99
2019/04/19 04:54 EDT   -0.09   0.43 -999 -999 -999 -99.9  61.9 1011.4 14.3  1.011 -99.9 -99.99 -9.99
2019/04/19 05:00 EDT   -0.04   0.48 -999 -999 -999 -99.9  61.9 1011.3 14.3  1.011 -99.9 -99.99 -9.99
2019/04/19 05:06 EDT    0.01   0.53 -999 -999 -999 -99.9  62.1 1011.2 14.2  1.011 -99.9 -99.99 -9.99
2019/04/19 05:12 EDT    0.07   0.58 -999 -999 -999 -99.9  62.1 1011.1 14.1  1.011 -99.9 -99.99 -9.99
2019/04/19 05:18 EDT    0.13   0.65 -999 -999 -999 -99.9  62.2 1011.0 14.1  1.010 -99.9 -99.99 -9.99
2019/04/19 05:24 EDT    0.19   0.70 -999 -999 -999 -99.9  62.2 1010.9 14.1  1.010 -99.9 -99.99 -9.99
2019/04/19 05:30 EDT    0.25   0.76 -999 -999 -999 -99.9  62.2 1010.9 14.0  1.010 -99.9 -99.99 -9.99
2019/04/19 05:36 EDT    0.32   0.82 -999 -999 -999 -99.9  62.6 1010.8 13.7  1.010 -99.9 -99.99 -9.99
2019/04/19 05:42 EDT    0.39   0.82 -999 -999 -999 -99.9  62.4 1010.7 13.8  1.010 -99.9 -99.99 -9.99
2019/04/19 05:48 EDT    0.46   0.94 -999 -999 -999 -99.9  62.4 1010.6 13.5  1.010 -99.9 -99.99 -9.99
2019/04/19 05:54 EDT    0.54   1.02 -999 -999 -999 -99.9  62.2 1010.5 13.3  1.010 -99.9 -99.99 -9.99
2019/04/19 06:00 EDT    0.61   1.08 -999 -999 -999 -99.9  62.2 1010.5 13.4  1.010 -99.9 -99.99 -9.99
2019/04/19 06:06 EDT    0.69   1.18 -999 -999 -999 -99.9  62.2 1010.4 13.3  1.010 -99.9 -99.99 -9.99
2019/04/19 06:12 EDT    0.77   1.25 -999 -999 -999 -99.9  62.2 1010.4 13.3  1.010 -99.9 -99.99 -9.99
2019/04/19 06:18 EDT    0.85   1.34 -999 -999 -999 -99.9  62.2 1010.3 13.3  1.010 -99.9 -99.99 -9.99
2019/04/19 06:24 EDT    0.93   1.41 -999 -999 -999 -99.9  62.2 1010.2 13.3  1.010 -99.9 -99.99 -9.99
2019/04/19 06:30 EDT    1.01   1.51 -999 -999 -999 -99.9  62.2 1010.3 13.3  1.010 -99.9 -99.99 -9.99
2019/04/19 06:36 EDT    1.10   1.57 -999 -999 -999 -99.9  62.2 1010.2 13.3  1.010 -99.9 -99.99 -9.99
2019/04/19 06:42 EDT    1.18   1.67 -999 -999 -999 -99.9  62.2 1010.2 13.4  1.010 -99.9 -99.99 -9.99
2019/04/19 06:48 EDT    1.26   1.74 -999 -999 -999 -99.9  62.2 1010.2 13.4  1.010 -99.9 -99.99 -9.99
2019/04/19 06:54 EDT    1.35   1.83 -999 -999 -999 -99.9  62.2 1010.3 13.4  1.010 -99.9 -99.99 -9.99
2019/04/19 07:00 EDT    1.43   1.91 -999 -999 -999 -99.9  62.4 1010.4 13.4  1.010 -99.9 -99.99 -9.99
2019/04/19 07:06 EDT    1.51   1.99 -999 -999 -999 -99.9  62.6 1010.5 13.4  1.010 -99.9 -99.99 -9.99
2019/04/19 07:12 EDT    1.59   2.05 -999 -999 -999 -99.9  62.6 1010.6 13.4  1.010 -99.9 -99.99 -9.99
2019/04/19 07:18 EDT    1.67   2.13 -999 -999 -999 -99.9  62.4 1010.8 13.4  1.010 -99.9 -99.99 -9.99
2019/04/19 07:24 EDT    1.75   2.20 -999 -999 -999 -99.9  62.4 1010.9 13.3  1.010 -99.9 -99.99 -9.99
2019/04/19 07:30 EDT    1.83   2.27 -999 -999 -999 -99.9  62.4 1010.9 13.4  1.010 -99.9 -99.99 -9.99
2019/04/19 07:36 EDT    1.91   2.33 -999 -999 -999 -99.9  62.4 1010.9 13.5  1.010 -99.9 -99.99 -9.99
2019/04/19 07:42 EDT    1.98   2.41 -999 -999 -999 -99.9  62.4 1011.0 13.5  1.010 -99.9 -99.99 -9.99
2019/04/19 07:48 EDT    2.05   2.48 -999 -999 -999 -99.9  62.2 1011.2 13.6  1.010 -99.9 -99.99 -9.99
2019/04/19 07:54 EDT    2.12   2.55 -999 -999 -999 -99.9  62.2 1011.3 13.6  1.010 -99.9 -99.99 -9.99
2019/04/19 08:00 EDT    2.19   2.62 -999 -999 -999 -99.9  62.2 1011.3 13.7  1.010 -99.9 -99.99 -9.99
2019/04/19 08:06 EDT    2.26   2.69 -999 -999 -999 -99.9  62.1 1011.3 13.8  1.010 -99.9 -99.99 -9.99
2019/04/19 08:12 EDT    2.32   2.74 -999 -999 -999 -99.9  62.1 1011.3 13.8  1.010 -99.9 -99.99 -9.99
2019/04/19 08:18 EDT    2.38   2.81 -999 -999 -999 -99.9  62.1 1011.2 13.7  1.010 -99.9 -99.99 -9.99
2019/04/19 08:24 EDT    2.44   2.86 -999 -999 -999 -99.9  62.1 1011.2 13.7  1.010 -99.9 -99.99 -9.99
2019/04/19 08:30 EDT    2.49   2.89 -999 -999 -999 -99.9  62.2 1011.3 13.6  1.010 -99.9 -99.99 -9.99
2019/04/19 08:36 EDT    2.55   2.96 -999 -999 -999 -99.9  62.2 1011.4 13.5  1.010 -99.9 -99.99 -9.99
2019/04/19 08:42 EDT    2.59   2.98 -999 -999 -999 -99.9  62.1 1011.4 13.7  1.010 -99.9 -99.99 -9.99
2019/04/19 08:48 EDT    2.64   3.04 -999 -999 -999 -99.9  62.1 1011.4 13.8  1.010 -99.9 -99.99 -9.99
2019/04/19 08:54 EDT    2.68   3.08 -999 -999 -999 -99.9  62.1 1011.5 13.8  1.010 -99.9 -99.99 -9.99
2019/04/19 09:00 EDT    2.72   3.12 -999 -999 -999 -99.9  62.2 1011.4 13.6  1.010 -99.9 -99.99 -9.99
2019/04/19 09:06 EDT    2.75   3.15 -999 -999 -999 -99.9  62.1 1011.4 13.8  1.010 -99.9 -99.99 -9.99
2019/04/19 09:12 EDT    2.78   3.19 -999 -999 -999 -99.9  61.5 1011.2 14.6  1.011 -99.9 -99.99 -9.99
2019/04/19 09:18 EDT    2.81   3.22 -999 -999 -999 -99.9  61.5 1011.2 14.6  1.011 -99.9 -99.99 -9.99
2019/04/19 09:24 EDT    2.83   3.23 -999 -999 -999 -99.9  61.7 1011.1 14.3  1.011 -99.9 -99.99 -9.99
2019/04/19 09:30 EDT    2.85   3.26 -999 -999 -999 -99.9  62.1 1011.0 13.9  1.010 -99.9 -99.99 -9.99
2019/04/19 09:36 EDT    2.86   3.26 -999 -999 -999 -99.9  62.1 1011.0 13.8  1.010 -99.9 -99.99 -9.99
2019/04/19 09:42 EDT    2.87   3.28 -999 -999 -999 -99.9  61.9 1010.9 13.9  1.010 -99.9 -99.99 -9.99
2019/04/19 09:48 EDT    2.88   3.30 -999 -999 -999 -99.9  61.9 1010.8 14.1  1.011 -99.9 -99.99 -9.99
2019/04/19 09:54 EDT    2.88   3.27 -999 -999 -999 -99.9  61.9 1010.7 13.9  1.010 -99.9 -99.99 -9.99
2019/04/19 10:00 EDT    2.88   3.27 -999 -999 -999 -99.9  62.1 1010.7 13.8  1.010 -99.9 -99.99 -9.99
2019/04/19 10:06 EDT    2.87   3.27 -999 -999 -999 -99.9  62.1 1010.6 13.7  1.010 -99.9 -99.99 -9.99
2019/04/19 10:12 EDT    2.86   3.24 -999 -999 -999 -99.9  62.2 1010.6 13.6  1.010 -99.9 -99.99 -9.99
2019/04/19 10:18 EDT    2.84   3.25 -999 -999 -999 -99.9  62.1 1010.5 13.8  1.010 -99.9 -99.99 -9.99
2019/04/19 10:24 EDT    2.83   3.23 -999 -999 -999 -99.9  62.1 1010.4 13.8  1.010 -99.9 -99.99 -9.99
2019/04/19 10:30 EDT    2.80   3.24 -999 -999 -999 -99.9  61.9 1010.3 14.0  1.010 -99.9 -99.99 -9.99
2019/04/19 10:36 EDT    2.78   3.20 -999 -999 -999 -99.9  61.9 1010.3 13.9  1.010 -99.9 -99.99 -9.99
2019/04/19 10:42 EDT    2.75   3.20 -999 -999 -999 -99.9  61.9 1010.4 14.0  1.010 -99.9 -99.99 -9.99
2019/04/19 10:48 EDT    2.71   3.17 -999 -999 -999 -99.9  61.9 1010.4 13.9  1.010 -99.9 -99.99 -9.99
2019/04/19 10:54 EDT    2.67   3.15 -999 -999 -999 -99.9  62.1 1010.4 13.8  1.010 -99.9 -99.99 -9.99
2019/04/19 11:00 EDT    2.63   3.11 -999 -999 -999 -99.9  62.1 1010.2 13.8  1.010 -99.9 -99.99 -9.99
2019/04/19 11:06 EDT    2.59   3.07 -999 -999 -999 -99.9  61.9 1010.3 13.9  1.010 -99.9 -99.99 -9.99
2019/04/19 11:12 EDT    2.54   3.01 -999 -999 -999 -99.9  61.9 1010.1 13.9  1.010 -99.9 -99.99 -9.99
2019/04/19 11:18 EDT    2.49   2.97 -999 -999 -999 -99.9  61.9 1010.1 13.9  1.010 -99.9 -99.99 -9.99
2019/04/19 11:24 EDT    2.44   2.92 -999 -999 -999 -99.9  61.9 1010.1 13.9  1.010 -99.9 -99.99 -9.99
2019/04/19 11:30 EDT    2.38   2.85 -999 -999 -999 -99.9  61.9 1010.0 14.1  1.011 -99.9 -99.99 -9.99
2019/04/19 11:36 EDT    2.32   2.80 -999 -999 -999 -99.9  61.9 1009.8 14.1  1.011 -99.9 -99.99 -9.99
2019/04/19 11:42 EDT    2.25   2.73 -999 -999 -999 -99.9  61.7 1009.7 14.2  1.011 -99.9 -99.99 -9.99
2019/04/19 11:48 EDT    2.19   2.67 -999 -999 -999 -99.9  61.9 1009.7 14.1  1.011 -99.9 -99.99 -9.99
2019/04/19 11:54 EDT    2.12   2.61 -999 -999 -999 -99.9  61.7 1009.6 14.2  1.011 -99.9 -99.99 -9.99
2019/04/19 12:00 EDT    2.05   2.54 -999 -999 -999 -99.9  61.7 1009.6 14.2  1.011 -99.9 -99.99 -9.99
2019/04/19 12:06 EDT    1.98   2.47 -999 -999 -999 -99.9  61.7 1009.5 14.1  1.011 -99.9 -99.99 -9.99
2019/04/19 12:12 EDT    1.90   2.41 -999 -999 -999 -99.9  61.9 1009.3 14.1  1.010 -99.9 -99.99 -9.99
2019/04/19 12:18 EDT    1.83   2.34 -999 -999 -999 -99.9  61.7 1009.1 14.1  1.011 -99.9 -99.99 -9.99
2019/04/19 12:24 EDT    1.75   2.25 -999 -999 -999 -99.9  61.7 1009.1 14.1  1.011 -99.9 -99.99 -9.99
2019/04/19 12:30 EDT    1.67   2.17 -999 -999 -999 -99.9  61.7 1009.0 14.3  1.011 -99.9 -99.99 -9.99
2019/04/19 12:36 EDT    1.59   2.09 -999 -999 -999 -99.9  61.7 1009.1 14.2  1.011 -99.9 -99.99 -9.99
2019/04/19 12:42 EDT    1.51   2.01 -999 -999 -999 -99.9  61.7 1009.0 14.3  1.011 -99.9 -99.99 -9.99
2019/04/19 12:48 EDT    1.43   1.92 -999 -999 -999 -99.9  61.7 1008.9 14.3  1.011 -99.9 -99.99 -9.99
2019/04/19 12:54 EDT    1.35   1.84 -999 -999 -999 -99.9  61.7 1008.8 14.3  1.011 -99.9 -99.99 -9.99
2019/04/19 13:00 EDT    1.27   1.76 -999 -999 -999 -99.9  61.7 1008.6 14.3  1.011 -99.9 -99.99 -9.99
2019/04/19 13:06 EDT    1.18   1.67 -999 -999 -999 -99.9  61.7 1008.3 14.2  1.011 -99.9 -99.99 -9.99
2019/04/19 13:12 EDT    1.10   1.58 -999 -999 -999 -99.9  61.9 1008.4 14.0  1.010 -99.9 -99.99 -9.99
2019/04/19 13:18 EDT    1.02   1.52 -999 -999 -999 -99.9  61.9 1008.2 14.1  1.011 -99.9 -99.99 -9.99
2019/04/19 13:24 EDT    0.94   1.44 -999 -999 -999 -99.9  61.9 1008.0 14.1  1.011 -99.9 -99.99 -9.99
2019/04/19 13:30 EDT    0.86   1.37 -999 -999 -999 -99.9  61.7 1007.9 14.3  1.011 -99.9 -99.99 -9.99
2019/04/19 13:36 EDT    0.78   1.28 -999 -999 -999 -99.9  61.9 1007.7 14.1  1.011 -99.9 -99.99 -9.99
2019/04/19 13:42 EDT    0.70   1.21 -999 -999 -999 -99.9  62.1 1007.7 14.1  1.011 -99.9 -99.99 -9.99
2019/04/19 13:48 EDT    0.63   1.20 -999 -999 -999 -99.9  62.1 1007.9 14.1  1.011 -99.9 -99.99 -9.99
2019/04/19 13:54 EDT    0.55   1.10 -999 -999 -999 -99.9  62.4 1007.8 14.0  1.010 -99.9 -99.99 -9.99
2019/04/19 14:00 EDT    0.48   0.97 -999 -999 -999 -99.9  61.9 1007.7 14.2  1.011 -99.9 -99.99 -9.99
2019/04/19 14:06 EDT    0.41   0.93 -999 -999 -999 -99.9  62.4 1007.6 14.0  1.010 -99.9 -99.99 -9.99
2019/04/19 14:12 EDT    0.34   0.85 -999 -999 -999 -99.9  62.4 1007.4 14.0  1.010 -99.9 -99.99 -9.99
2019/04/19 14:18 EDT    0.28   0.79 -999 -999 -999 -99.9  62.4 1007.5 14.1  1.010 -99.9 -99.99 -9.99
2019/04/19 14:24 EDT    0.22   0.69 -999 -999 -999 -99.9  62.6 1007.4 14.0  1.010 -99.9 -99.99 -9.99
2019/04/19 14:30 EDT    0.16   0.65 -999 -999 -999 -99.9  62.6 1007.2 14.0  1.010 -99.9 -99.99 -9.99
2019/04/19 14:36 EDT    0.10   0.60 -999 -999 -999 -99.9  62.6 1007.1 14.0  1.010 -99.9 -99.99 -9.99
2019/04/19 14:42 EDT    0.05   0.56 -999 -999 -999 -99.9  62.8 1006.9 13.9  1.010 -99.9 -99.99 -9.99
2019/04/19 14:48 EDT   -0.01   0.53 -999 -999 -999 -99.9  62.6 1006.8 14.0  1.010 -99.9 -99.99 -9.99
2019/04/19 14:54 EDT   -0.05   0.45 -999 -999 -999 -99.9  62.6 1006.5 14.0  1.010 -99.9 -99.99 -9.99
2019/04/19 15:00 EDT   -0.10   0.41 -999 -999 -999 -99.9  62.8 1006.5 13.9  1.010 -99.9 -99.99 -9.99
2019/04/19 15:06 EDT   -0.13   0.38 -999 -999 -999 -99.9  62.6 1006.6 14.0  1.010 -99.9 -99.99 -9.99
2019/04/19 15:12 EDT   -0.17   0.35 -999 -999 -999 -99.9  62.8 1006.7 13.9  1.010 -99.9 -99.99 -9.99
2019/04/19 15:18 EDT   -0.20   0.32 -999 -999 -999 -99.9  62.8 1006.9 13.9  1.010 -99.9 -99.99 -9.99
2019/04/19 15:24 EDT   -0.23   0.29 -999 -999 -999 -99.9  62.6 1006.9 14.0  1.010 -99.9 -99.99 -9.99
2019/04/19 15:30 EDT   -0.25   0.27 -999 -999 -999 -99.9  62.4 1006.6 14.0  1.010 -99.9 -99.99 -9.99
2019/04/19 15:36 EDT   -0.27   0.27 -999 -999 -999 -99.9  62.2 1006.4 14.1  1.011 -99.9 -99.99 -9.99
2019/04/19 15:42 EDT   -0.28   0.19 -999 -999 -999 -99.9  62.2 1006.2 14.1  1.010 -99.9 -99.99 -9.99
2019/04/19 15:48 EDT   -0.29   0.28 -999 -999 -999 -99.9  62.2 1006.1 14.1  1.011 -99.9 -99.99 -9.99
2019/04/19 15:54 EDT   -0.30   0.21 -999 -999 -999 -99.9  62.2 1006.0 14.1  1.010 -99.9 -99.99 -9.99
2019/04/19 16:00 EDT   -0.30   0.23 -999 -999 -999 -99.9  62.2 1005.8 14.1  1.011 -99.9 -99.99 -9.99
2019/04/19 16:06 EDT   -0.30   0.22 -999 -999 -999 -99.9  62.2 1005.8 14.2  1.011 -99.9 -99.99 -9.99
2019/04/19 16:12 EDT   -0.29   0.22 -999 -999 -999 -99.9  62.2 1005.6 13.8  1.010 -99.9 -99.99 -9.99
2019/04/19 16:18 EDT   -0.28   0.30 -999 -999 -999 -99.9  62.1 1005.8 14.0  1.010 -99.9 -99.99 -9.99
2019/04/19 16:24 EDT   -0.26   0.45 -999 -999 -999 -99.9  62.2 1005.4 14.1  1.010 -99.9 -99.99 -9.99
2019/04/19 16:30 EDT   -0.24   0.22 -999 -999 -999 -99.9  62.2 1005.4 14.1  1.011 -99.9 -99.99 -9.99
2019/04/19 16:36 EDT   -0.21   0.31 -999 -999 -999 -99.9  62.1 1005.4 14.2  1.011 -99.9 -99.99 -9.99
2019/04/19 16:42 EDT   -0.18   0.36 -999 -999 -999 -99.9  62.2 1005.2 14.2  1.011 -99.9 -99.99 -9.99
2019/04/19 16:48 EDT   -0.15   0.34 -999 -999 -999 -99.9  62.2 1005.1 14.1  1.011 -99.9 -99.99 -9.99
2019/04/19 16:54 EDT   -0.11   0.52 -999 -999 -999 -99.9  62.2 1005.2 14.1  1.010 -99.9 -99.99 -9.99
2019/04/19 17:00 EDT   -0.07   0.54 -999 -999 -999 -99.9  62.2 1005.4 14.1  1.010 -99.9 -99.99 -9.99
2019/04/19 17:06 EDT   -0.02   0.57 -999 -999 -999 -99.9  62.1 1005.2 14.2  1.011 -99.9 -99.99 -9.99
2019/04/19 17:12 EDT    0.03   0.60 -999 -999 -999 -99.9  62.2 1005.2 14.1  1.011 -99.9 -99.99 -9.99
2019/04/19 17:18 EDT    0.09   0.69 -999 -999 -999 -99.9  62.2 1005.2 14.1  1.010 -99.9 -99.99 -9.99
2019/04/19 17:24 EDT    0.14   0.78 -999 -999 -999 -99.9  62.4 1005.2 14.0  1.010 -99.9 -99.99 -9.99
2019/04/19 17:30 EDT    0.20   0.74 -999 -999 -999 -99.9  62.4 1005.1 14.1  1.010 -99.9 -99.99 -9.99
2019/04/19 17:36 EDT    0.27   0.84 -999 -999 -999 -99.9  62.2 1005.2 14.1  1.011 -99.9 -99.99 -9.99
2019/04/19 17:42 EDT    0.34   0.89 -999 -999 -999 -99.9  62.4 1005.2 14.1  1.010 -99.9 -99.99 -9.99
2019/04/19 17:48 EDT    0.41   1.00 -999 -999 -999 -99.9  62.4 1005.0 14.1  1.010 -99.9 -99.99 -9.99
2019/04/19 17:54 EDT    0.48   1.08 -999 -999 -999 -99.9  62.4 1004.9 14.2  1.011 -99.9 -99.99 -9.99
2019/04/19 18:00 EDT    0.55   1.10 -999 -999 -999 -99.9  62.6 1005.0 14.0  1.010 -99.9 -99.99 -9.99
2019/04/19 18:06 EDT    0.63   1.17 -999 -999 -999 -99.9  62.8 1004.9 13.9  1.010 -99.9 -99.99 -9.99
2019/04/19 18:12 EDT    0.71   1.22 -999 -999 -999 -99.9  63.0 1004.9 13.7  1.010 -99.9 -99.99 -9.99
2019/04/19 18:18 EDT    0.79   1.31 -999 -999 -999 -99.9  63.3 1004.8 13.2  1.010 -99.9 -99.99 -9.99
2019/04/19 18:24 EDT    0.88   1.32 -999 -999 -999 -99.9  63.3 1004.8 13.2  1.010 -99.9 -99.99 -9.99
2019/04/19 18:30 EDT    0.96   1.46 -999 -999 -999 -99.9  63.1 1004.7 13.3  1.010 -99.9 -99.99 -9.99
2019/04/19 18:36 EDT    1.05   1.52 -999 -999 -999 -99.9  63.3 1004.6 13.2  1.010 -99.9 -99.99 -9.99
2019/04/19 18:42 EDT    1.14   1.60 -999 -999 -999 -99.9  63.3 1004.5 13.3  1.010 -99.9 -99.99 -9.99
2019/04/19 18:48 EDT    1.23   1.67 -999 -999 -999 -99.9  63.3 1004.6 13.2  1.010 -99.9 -99.99 -9.99
2019/04/19 18:54 EDT    1.31   1.76 -999 -999 -999 -99.9  63.3 1004.7 13.3  1.010 -99.9 -99.99 -9.99
2019/04/19 19:00 EDT    1.40   1.80 -999 -999 -999 -99.9  63.3 1004.6 13.3  1.010 -99.9 -99.99 -9.99
2019/04/19 19:06 EDT    1.49   1.92 -999 -999 -999 -99.9  63.1 1004.5 13.3  1.010 -99.9 -99.99 -9.99
2019/04/19 19:12 EDT    1.58   1.96 -999 -999 -999 -99.9  63.1 1004.4 13.4  1.010 -99.9 -99.99 -9.99
2019/04/19 19:18 EDT    1.67   1.97 -999 -999 -999 -99.9  63.3 1004.5 13.3  1.010 -99.9 -99.99 -9.99
2019/04/19 19:24 EDT    1.76   2.10 -999 -999 -999 -99.9  63.1 1004.2 13.3  1.010 -99.9 -99.99 -9.99
2019/04/19 19:30 EDT    1.85   2.16 -999 -999 -999 -99.9  63.3 1004.2 13.2  1.010 -99.9 -99.99 -9.99
2019/04/19 19:36 EDT    1.93   2.28 -999 -999 -999 -99.9  63.1 1004.0 13.4  1.010 -99.9 -99.99 -9.99
2019/04/19 19:42 EDT    2.02   2.34 -999 -999 -999 -99.9  63.1 1003.7 13.5  1.010 -99.9 -99.99 -9.99
2019/04/19 19:48 EDT    2.10   2.43 -999 -999 -999 -99.9  63.1 1003.6 13.5  1.010 -99.9 -99.99 -9.99
2019/04/19 19:54 EDT    2.19   2.50 -999 -999 -999 -99.9  63.1 1004.0 13.4  1.010 -99.9 -99.99 -9.99
2019/04/19 20:00 EDT    2.27   2.63 -999 -999 -999 -99.9  63.1 1004.0 13.5  1.010 -99.9 -99.99 -9.99
2019/04/19 20:06 EDT    2.35   2.65 -999 -999 -999 -99.9  63.0 1004.2 13.5  1.010 -99.9 -99.99 -9.99
2019/04/19 20:12 EDT    2.42   2.75 -999 -999 -999 -99.9  62.8 1004.2 13.7  1.010 -99.9 -99.99 -9.99
2019/04/19 20:18 EDT    2.50   2.80 -999 -999 -999 -99.9  62.6 1004.5 13.9  1.010 -99.9 -99.99 -9.99
2019/04/19 20:24 EDT    2.57   2.89 -999 -999 -999 -99.9  63.0 1004.6 13.5  1.010 -99.9 -99.99 -9.99
2019/04/19 20:30 EDT    2.64   2.94 -999 -999 -999 -99.9  63.0 1004.8 13.6  1.010 -99.9 -99.99 -9.99
2019/04/19 20:36 EDT    2.70   3.04 -999 -999 -999 -99.9  63.1 1005.1 13.5  1.010 -99.9 -99.99 -9.99
2019/04/19 20:42 EDT    2.77   3.15 -999 -999 -999 -99.9  63.0 1005.3 13.6  1.010 -99.9 -99.99 -9.99
2019/04/19 20:48 EDT    2.83   3.22 -999 -999 -999 -99.9  63.0 1005.4 13.6  1.010 -99.9 -99.99 -9.99
2019/04/19 20:54 EDT    2.88   3.23 -999 -999 -999 -99.9  62.6 1005.3 13.8  1.010 -99.9 -99.99 -9.99
2019/04/19 21:00 EDT    2.94   3.29 -999 -999 -999 -99.9  62.6 1005.3 13.9  1.010 -99.9 -99.99 -9.99
2019/04/19 21:06 EDT    2.99   3.30 -999 -999 -999 -99.9  62.2 1005.4 14.3  1.011 -99.9 -99.99 -9.99
2019/04/19 21:12 EDT    3.03   3.38 -999 -999 -999 -99.9  62.4 1005.4 14.0  1.010 -99.9 -99.99 -9.99
2019/04/19 21:18 EDT    3.08   3.40 -999 -999 -999 -99.9  62.6 1004.9 14.0  1.010 -99.9 -99.99 -9.99
2019/04/19 21:24 EDT    3.11   3.49 -999 -999 -999 -99.9  62.8 1005.2 13.7  1.010 -99.9 -99.99 -9.99
2019/04/19 21:30 EDT    3.15   3.48 -999 -999 -999 -99.9  62.8 1006.1 13.7  1.010 -99.9 -99.99 -9.99
2019/04/19 21:36 EDT    3.18   3.52 -999 -999 -999 -99.9  62.8 1005.5 13.8  1.010 -99.9 -99.99 -9.99
2019/04/19 21:42 EDT    3.20   3.52 -999 -999 -999 -99.9  63.0 1005.5 13.6  1.010 -99.9 -99.99 -9.99
2019/04/19 21:48 EDT    3.23   3.50 -999 -999 -999 -99.9  63.0 1005.1 13.5  1.010 -99.9 -99.99 -9.99
2019/04/19 21:54 EDT    3.24   3.51 -999 -999 -999 -99.9  62.8 1005.2 13.7  1.010 -99.9 -99.99 -9.99
2019/04/19 22:00 EDT    3.26   3.46 -999 -999 -999 -99.9  63.0 1005.2 13.6  1.010 -99.9 -99.99 -9.99
2019/04/19 22:06 EDT    3.27   3.49 -999 -999 -999 -99.9  63.0 1005.1 13.6  1.010 -99.9 -99.99 -9.99
2019/04/19 22:12 EDT    3.27   3.51 -999 -999 -999 -99.9  62.8 1005.2 13.7  1.010 -99.9 -99.99 -9.99
2019/04/19 22:18 EDT    3.27   3.62 -999 -999 -999 -99.9  62.8 1005.0 13.7  1.010 -99.9 -99.99 -9.99
2019/04/19 22:24 EDT    3.27   3.58 -999 -999 -999 -99.9  62.8 1004.9 13.7  1.010 -99.9 -99.99 -9.99
2019/04/19 22:30 EDT    3.26   3.59 -999 -999 -999 -99.9  62.8 1004.8 13.8  1.010 -99.9 -99.99 -9.99
2019/04/19 22:36 EDT    3.25   3.57 -999 -999 -999 -99.9  62.8 1004.7 13.7  1.010 -99.9 -99.99 -9.99
2019/04/19 22:42 EDT    3.23   3.59 -999 -999 -999 -99.9  62.8 1004.6 13.7  1.010 -99.9 -99.99 -9.99
2019/04/19 22:48 EDT    3.21   3.52 -999 -999 -999 -99.9  62.8 1004.6 13.8  1.010 -99.9 -99.99 -9.99
2019/04/19 22:54 EDT    3.18   3.51 -999 -999 -999 -99.9  63.0 1004.5 13.7  1.010 -99.9 -99.99 -9.99
2019/04/19 23:00 EDT    3.15   3.49 -999 -999 -999 -99.9  63.0 1004.1 13.7  1.010 -99.9 -99.99 -9.99
2019/04/19 23:06 EDT    3.12   3.50 -999 -999 -999 -99.9  63.0 1003.6 13.6  1.010 -99.9 -99.99 -9.99
2019/04/19 23:12 EDT    3.08   3.46 -999 -999 -999 -99.9  62.8 1003.7 13.8  1.010 -99.9 -99.99 -9.99
2019/04/19 23:18 EDT    3.04   3.41 -999 -999 -999 -99.9  62.6 1003.5 14.0  1.010 -99.9 -99.99 -9.99
2019/04/19 23:24 EDT    2.99   3.39 -999 -999 -999 -99.9  62.6 1003.5 14.0  1.010 -99.9 -99.99 -9.99
2019/04/19 23:30 EDT    2.95   3.36 -999 -999 -999 -99.9  62.6 1003.7 14.1  1.010 -99.9 -99.99 -9.99
2019/04/19 23:36 EDT    2.89   3.32 -999 -999 -999 -99.9  62.4 1003.9 14.1  1.010 -99.9 -99.99 -9.99
2019/04/19 23:42 EDT    2.84   3.24 -999 -999 -999 -99.9  62.6 1003.9 14.0  1.010 -99.9 -99.99 -9.99
2019/04/19 23:48 EDT    2.78   3.21 -999 -999 -999 -99.9  62.4 1004.2 14.1  1.010 -99.9 -99.99 -9.99
2019/04/19 23:54 EDT    2.72   3.15 -999 -999 -999 -99.9  62.4 1004.5 14.3  1.011 -99.9 -99.99 -9.99
2019/04/20 00:00 EDT    2.65   3.11 -999 -999 -999 -99.9  62.4 1004.3 14.2  1.011 -99.9 -99.99 -9.99
2019/04/20 00:06 EDT    2.58   3.04 -999 -999 -999 -99.9  62.2 1004.5 14.3  1.011 -99.9 -99.99 -9.99
2019/04/20 00:12 EDT    2.51   3.00 -999 -999 -999 -99.9  62.4 1004.5 14.2  1.011 -99.9 -99.99 -9.99
2019/04/20 00:18 EDT    2.44   2.94 -999 -999 -999 -99.9  62.2 1004.5 14.4  1.011 -99.9 -99.99 -9.99
2019/04/20 00:24 EDT    2.36   2.89 -999 -999 -999 -99.9  62.2 1004.3 14.3  1.011 -99.9 -99.99 -9.99
2019/04/20 00:30 EDT    2.28   2.82 -999 -999 -999 -99.9  62.2 1004.1 14.4  1.011 -99.9 -99.99 -9.99
2019/04/20 00:36 EDT    2.20   2.78 -999 -999 -999 -99.9  62.2 1004.2 14.5  1.011 -99.9 -99.99 -9.99
2019/04/20 00:42 EDT    2.12   2.72 -999 -999 -999 -99.9  62.2 1004.1 14.5  1.011 -99.9 -99.99 -9.99
2019/04/20 00:48 EDT    2.03   2.65 -999 -999 -999 -99.9  62.2 1004.3 14.5  1.011 -99.9 -99.99 -9.99
2019/04/20 00:54 EDT    1.95   2.56 -999 -999 -999 -99.9  61.9 1004.3 14.8  1.011 -99.9 -99.99 -9.99
2019/04/20 01:00 EDT    1.86   2.51 -999 -999 -999 -99.9  61.9 1004.3 14.8  1.011 -99.9 -99.99 -9.99
2019/04/20 01:06 EDT    1.77   2.42 -999 -999 -999 -99.9  61.7 1004.4 15.0  1.011 -99.9 -99.99 -9.99
2019/04/20 01:12 EDT    1.69   2.36 -999 -999 -999 -99.9  62.1 1004.4 14.7  1.011 -99.9 -99.99 -9.99
2019/04/20 01:18 EDT    1.60   2.28 -999 -999 -999 -99.9  62.2 1004.3 14.6  1.011 -99.9 -99.99 -9.99
2019/04/20 01:24 EDT    1.51   2.22 -999 -999 -999 -99.9  62.1 1004.3 14.7  1.011 -99.9 -99.99 -9.99
2019/04/20 01:30 EDT    1.42   2.14 -999 -999 -999 -99.9  62.1 1004.1 14.7  1.011 -99.9 -99.99 -9.99
2019/04/20 01:36 EDT    1.33   2.04 -999 -999 -999 -99.9  62.1 1004.0 14.6  1.011 -99.9 -99.99 -9.99
2019/04/20 01:42 EDT    1.24   1.95 -999 -999 -999 -99.9  62.2 1004.0 14.5  1.011 -99.9 -99.99 -9.99
2019/04/20 01:48 EDT    1.15   1.86 -999 -999 -999 -99.9  62.2 1003.9 14.5  1.011 -99.9 -99.99 -9.99
2019/04/20 01:54 EDT    1.06   1.77 -999 -999 -999 -99.9  62.2 1003.8 14.4  1.011 -99.9 -99.99 -9.99
2019/04/20 02:00 EDT    0.98   1.67 -999 -999 -999 -99.9  62.2 1003.8 14.5  1.011 -99.9 -99.99 -9.99
2019/04/20 02:06 EDT    0.89   1.58 -999 -999 -999 -99.9  62.1 1003.5 14.6  1.011 -99.9 -99.99 -9.99
2019/04/20 02:12 EDT    0.81   1.50 -999 -999 -999 -99.9  62.2 1003.5 14.5  1.011 -99.9 -99.99 -9.99
2019/04/20 02:18 EDT    0.72   1.43 -999 -999 -999 -99.9  62.2 1003.3 14.5  1.011 -99.9 -99.99 -9.99
2019/04/20 02:24 EDT    0.64   1.36 -999 -999 -999 -99.9  62.2 1003.1 14.5  1.011 -99.9 -99.99 -9.99
2019/04/20 02:30 EDT    0.56   1.28 -999 -999 -999 -99.9  62.4 1002.9 14.4  1.011 -99.9 -99.99 -9.99
2019/04/20 02:36 EDT    0.49   1.22 -999 -999 -999 -99.9  62.6 1002.9 14.3  1.011 -99.9 -99.99 -9.99
2019/04/20 02:42 EDT    0.41   1.15 -999 -999 -999 -99.9  62.6 1002.9 14.3  1.011 -99.9 -99.99 -9.99
2019/04/20 02:48 EDT    0.34   1.08 -999 -999 -999 -99.9  62.6 1002.5 14.3  1.011 -99.9 -99.99 -9.99
2019/04/20 02:54 EDT    0.27   1.03 -999 -999 -999 -99.9  62.6 1002.5 14.3  1.011 -99.9 -99.99 -9.99
2019/04/20 03:00 EDT    0.21   0.99 -999 -999 -999 -99.9  62.6 1002.8 14.3  1.011 -99.9 -99.99 -9.99
2019/04/20 03:06 EDT    0.14   0.94 -999 -999 -999 -99.9  62.4 1002.8 14.4  1.011 -99.9 -99.99 -9.99
2019/04/20 03:12 EDT    0.08   0.84 -999 -999 -999 -99.9  62.4 1002.4 14.4  1.011 -99.9 -99.99 -9.99
2019/04/20 03:18 EDT    0.03   0.81 -999 -999 -999 -99.9  62.4 1002.1 14.4  1.011 -99.9 -99.99 -9.99
2019/04/20 03:24 EDT   -0.03   0.76 -999 -999 -999 -99.9  62.4 1001.8 14.4  1.011 -99.9 -99.99 -9.99
2019/04/20 03:30 EDT   -0.08   0.71 -999 -999 -999 -99.9  62.6 1001.9 14.3  1.011 -99.9 -99.99 -9.99
2019/04/20 03:36 EDT   -0.12   0.64 -999 -999 -999 -99.9  62.6 1001.9 14.3  1.011 -99.9 -99.99 -9.99
2019/04/20 03:42 EDT   -0.16   0.59 -999 -999 -999 -99.9  62.6 1001.8 14.3  1.011 -99.9 -99.99 -9.99
2019/04/20 03:48 EDT   -0.20   0.56 -999 -999 -999 -99.9  62.6 1001.8 14.2  1.011 -99.9 -99.99 -9.99
2019/04/20 03:54 EDT   -0.23   0.51 -999 -999 -999 -99.9  62.4 1001.4 14.3  1.011 -99.9 -99.99 -9.99
2019/04/20 04:00 EDT   -0.26   0.50 -999 -999 -999 -99.9  62.4 1001.4 14.3  1.011 -99.9 -99.99 -9.99
2019/04/20 04:06 EDT   -0.28   0.47 -999 -999 -999 -99.9  62.4 1001.5 14.4  1.011 -99.9 -99.99 -9.99
2019/04/20 04:12 EDT   -0.30   0.44 -999 -999 -999 -99.9  62.2 1001.6 14.5  1.011 -99.9 -99.99 -9.99
2019/04/20 04:18 EDT   -0.32   0.42 -999 -999 -999 -99.9  62.4 1001.6 14.5  1.011 -99.9 -99.99 -9.99
2019/04/20 04:24 EDT   -0.33   0.34 -999 -999 -999 -99.9  62.4 1001.5 14.5  1.011 -99.9 -99.99 -9.99
2019/04/20 04:30 EDT   -0.34   0.35 -999 -999 -999 -99.9  62.2 1001.6 14.6  1.011 -99.9 -99.99 -9.99
2019/04/20 04:36 EDT   -0.34   0.38 -999 -999 -999 -99.9  62.4 1001.8 14.6  1.011 -99.9 -99.99 -9.99
2019/04/20 04:42 EDT   -0.34   0.35 -999 -999 -999 -99.9  62.2 1001.7 14.6  1.011 -99.9 -99.99 -9.99
2019/04/20 04:48 EDT   -0.33   0.33 -999 -999 -999 -99.9  62.2 1001.6 14.6  1.011 -99.9 -99.99 -9.99
2019/04/20 04:54 EDT   -0.32   0.33 -999 -999 -999 -99.9  62.2 1002.0 14.6  1.011 -99.9 -99.99 -9.99
2019/04/20 05:00 EDT   -0.30   0.41 -999 -999 -999 -99.9  62.4 1002.2 14.5  1.011 -99.9 -99.99 -9.99
2019/04/20 05:06 EDT   -0.28   0.40 -999 -999 -999 -99.9  62.2 1002.2 14.6  1.011 -99.9 -99.99 -9.99
2019/04/20 05:12 EDT   -0.26   0.45 -999 -999 -999 -99.9  62.2 1001.8 14.6  1.011 -99.9 -99.99 -9.99
2019/04/20 05:18 EDT   -0.23   0.45 -999 -999 -999 -99.9  62.1 1001.8 14.7  1.011 -99.9 -99.99 -9.99
2019/04/20 05:24 EDT   -0.20   0.49 -999 -999 -999 -99.9  62.2 1002.3 14.7  1.011 -99.9 -99.99 -9.99
2019/04/20 05:30 EDT   -0.16   0.54 -999 -999 -999 -99.9  62.1 1002.4 14.8  1.011 -99.9 -99.99 -9.99
2019/04/20 05:36 EDT   -0.12   0.59 -999 -999 -999 -99.9  61.9 1002.2 15.0  1.011 -99.9 -99.99 -9.99
2019/04/20 05:42 EDT   -0.08   0.63 -999 -999 -999 -99.9  61.9 1002.6 15.1  1.011 -99.9 -99.99 -9.99
2019/04/20 05:48 EDT   -0.03   0.68 -999 -999 -999 -99.9  61.9 1002.6 15.0  1.011 -99.9 -99.99 -9.99
2019/04/20 05:54 EDT    0.02   0.70 -999 -999 -999 -99.9  61.9 1002.4 15.1  1.011 -99.9 -99.99 -9.99
2019/04/20 06:00 EDT    0.07   0.83 -999 -999 -999 -99.9  62.1 1002.6 15.0  1.011 -99.9 -99.99 -9.99
2019/04/20 06:06 EDT    0.13   0.85 -999 -999 -999 -99.9  62.1 1002.0 14.9  1.011 -99.9 -99.99 -9.99
2019/04/20 06:12 EDT    0.19   0.91 -999 -999 -999 -99.9  62.2 1002.3 14.8  1.011 -99.9 -99.99 -9.99
2019/04/20 06:18 EDT    0.26   0.95 -999 -999 -999 -99.9  62.2 1002.3 14.8  1.011 -99.9 -99.99 -9.99
2019/04/20 06:24 EDT    0.32   1.02 -999 -999 -999 -99.9  62.2 1002.6 14.7  1.011 -99.9 -99.99 -9.99
2019/04/20 06:30 EDT    0.39   1.12 -999 -999 -999 -99.9  62.2 1002.7 14.6  1.011 -99.9 -99.99 -9.99
2019/04/20 06:36 EDT    0.46   1.20 -999 -999 -999 -99.9  62.6 1002.8 14.3  1.011 -99.9 -99.99 -9.99
2019/04/20 06:42 EDT    0.53   1.24 -999 -999 -999 -99.9  63.0 1003.4 13.6  1.010 -99.9 -99.99 -9.99
2019/04/20 06:48 EDT    0.61   1.31 -999 -999 -999 -99.9  63.0 1003.7 13.4  1.010 -99.9 -99.99 -9.99
2019/04/20 06:54 EDT    0.68   1.36 -999 -999 -999 -99.9  63.0 1003.4 13.4  1.010 -99.9 -99.99 -9.99
2019/04/20 07:00 EDT    0.76   1.43 -999 -999 -999 -99.9  63.0 1003.6 13.5  1.010 -99.9 -99.99 -9.99
2019/04/20 07:06 EDT    0.84   1.46 -999 -999 -999 -99.9  63.0 1003.6 13.3  1.010 -99.9 -99.99 -9.99
2019/04/20 07:12 EDT    0.92   1.48 -999 -999 -999 -99.9  63.0 1003.4 13.3  1.010 -99.9 -99.99 -9.99
2019/04/20 07:18 EDT    1.00   1.51 -999 -999 -999 -99.9  63.0 1003.7 13.4  1.010 -99.9 -99.99 -9.99
2019/04/20 07:24 EDT    1.08   1.59 -999 -999 -999 -99.9  63.0 1003.8 13.4  1.010 -99.9 -99.99 -9.99
2019/04/20 07:30 EDT    1.16   1.63 -999 -999 -999 -99.9  63.0 1003.8 13.4  1.010 -99.9 -99.99 -9.99
2019/04/20 07:36 EDT    1.24   1.69 -999 -999 -999 -99.9  63.0 1003.8 13.4  1.010 -99.9 -99.99 -9.99
2019/04/20 07:42 EDT    1.32   1.75 -999 -999 -999 -99.9  63.0 1004.0 13.4  1.010 -99.9 -99.99 -9.99
2019/04/20 07:48 EDT    1.40   1.84 -999 -999 -999 -99.9  63.0 1004.2 13.5  1.010 -99.9 -99.99 -9.99
2019/04/20 07:54 EDT    1.48   1.92 -999 -999 -999 -99.9  63.0 1004.1 13.5  1.010 -99.9 -99.99 -9.99
2019/04/20 08:00 EDT    1.56   1.98 -999 -999 -999 -99.9  63.0 1004.1 13.5  1.010 -99.9 -99.99 -9.99
2019/04/20 08:06 EDT    1.64   2.08 -999 -999 -999 -99.9  63.0 1004.2 13.4  1.010 -99.9 -99.99 -9.99
2019/04/20 08:12 EDT    1.72   2.15 -999 -999 -999 -99.9  63.0 1004.4 13.4  1.010 -99.9 -99.99 -9.99
2019/04/20 08:18 EDT    1.79   2.24 -999 -999 -999 -99.9  63.0 1004.6 13.5  1.010 -99.9 -99.99 -9.99
2019/04/20 08:24 EDT    1.87   2.35 -999 -999 -999 -99.9  62.8 1004.8 13.7  1.010 -99.9 -99.99 -9.99
2019/04/20 08:30 EDT    1.94   2.43 -999 -999 -999 -99.9  62.8 1004.9 13.7  1.010 -99.9 -99.99 -9.99
2019/04/20 08:36 EDT    2.01   2.54 -999 -999 -999 -99.9  62.8 1004.8 13.7  1.010 -99.9 -99.99 -9.99
2019/04/20 08:42 EDT    2.08   2.63 -999 -999 -999 -99.9  63.0 1004.8 13.6  1.010 -99.9 -99.99 -9.99
2019/04/20 08:48 EDT    2.14   2.68 -999 -999 -999 -99.9  62.8 1005.1 13.6  1.010 -99.9 -99.99 -9.99
2019/04/20 08:54 EDT    2.21   2.71 -999 -999 -999 -99.9  62.8 1005.3 13.8  1.010 -99.9 -99.99 -9.99
2019/04/20 09:00 EDT    2.27   2.75 -999 -999 -999 -99.9  62.8 1005.4 13.9  1.010 -99.9 -99.99 -9.99
2019/04/20 09:06 EDT    2.33   2.78 -999 -999 -999 -99.9  62.8 1005.6 13.9  1.010 -99.9 -99.99 -9.99
2019/04/20 09:12 EDT    2.38   2.81 -999 -999 -999 -99.9  62.6 1005.6 14.1  1.010 -99.9 -99.99 -9.99
2019/04/20 09:18 EDT    2.44   2.84 -999 -999 -999 -99.9  62.6 1005.8 14.1  1.010 -99.9 -99.99 -9.99
2019/04/20 09:24 EDT    2.49   2.86 -999 -999 -999 -99.9  62.6 1005.8 14.0  1.010 -99.9 -99.99 -9.99
2019/04/20 09:30 EDT    2.53   2.85 -999 -999 -999 -99.9  62.6 1005.8 14.0  1.010 -99.9 -99.99 -9.99
2019/04/20 09:36 EDT    2.57   2.88 -999 -999 -999 -99.9  62.8 1005.9 13.9  1.010 -99.9 -99.99 -9.99
2019/04/20 09:42 EDT    2.61   2.94 -999 -999 -999 -99.9  62.8 1006.0 13.9  1.010 -99.9 -99.99 -9.99
2019/04/20 09:48 EDT    2.65   2.98 -999 -999 -999 -99.9  62.8 1006.3 13.9  1.010 -99.9 -99.99 -9.99
2019/04/20 09:54 EDT    2.68   3.05 -999 -999 -999 -99.9  62.8 1006.5 13.9  1.010 -99.9 -99.99 -9.99
2019/04/20 10:00 EDT    2.71   3.12 -999 -999 -999 -99.9  62.6 1006.6 14.1  1.010 -99.9 -99.99 -9.99
2019/04/20 10:06 EDT    2.73   3.16 -999 -999 -999 -99.9  62.6 1006.6 14.1  1.010 -99.9 -99.99 -9.99
2019/04/20 10:12 EDT    2.76   3.16 -999 -999 -999 -99.9  62.6 1006.6 14.1  1.010 -99.9 -99.99 -9.99
2019/04/20 10:18 EDT    2.77   3.13 -999 -999 -999 -99.9  62.6 1006.6 14.0  1.010 -99.9 -99.99 -9.99
2019/04/20 10:24 EDT    2.78   3.17 -999 -999 -999 -99.9  62.8 1006.8 13.9  1.010 -99.9 -99.99 -9.99
2019/04/20 10:30 EDT    2.79   3.17 -999 -999 -999 -99.9  62.8 1006.9 13.8  1.010 -99.9 -99.99 -9.99
2019/04/20 10:36 EDT    2.80   3.15 -999 -999 -999 -99.9  62.8 1006.8 13.8  1.010 -99.9 -99.99 -9.99
2019/04/20 10:42 EDT    2.80   3.13 -999 -999 -999 -99.9  62.8 1006.8 13.8  1.010 -99.9 -99.99 -9.99
2019/04/20 10:48 EDT    2.80   3.14 -999 -999 -999 -99.9  62.8 1007.0 13.8  1.010 -99.9 -99.99 -9.99
2019/04/20 10:54 EDT    2.79   3.15 -999 -999 -999 -99.9  62.6 1006.9 14.1  1.010 -99.9 -99.99 -9.99
2019/04/20 11:00 EDT    2.78   3.16 -999 -999 -999 -99.9  62.6 1007.0 14.0  1.010 -99.9 -99.99 -9.99
2019/04/20 11:06 EDT    2.76   3.18 -999 -999 -999 -99.9  62.8 1007.0 13.8  1.010 -99.9 -99.99 -9.99
2019/04/20 11:12 EDT    2.75   3.15 -999 -999 -999 -99.9  62.8 1007.1 13.9  1.010 -99.9 -99.99 -9.99
2019/04/20 11:18 EDT    2.72   3.13 -999 -999 -999 -99.9  62.6 1007.2 13.9  1.010 -99.9 -99.99 -9.99
2019/04/20 11:24 EDT    2.70   3.10 -999 -999 -999 -99.9  62.6 1007.1 14.0  1.010 -99.9 -99.99 -9.99
2019/04/20 11:30 EDT    2.67   3.08 -999 -999 -999 -99.9  62.6 1007.1 14.0  1.010 -99.9 -99.99 -9.99
2019/04/20 11:36 EDT    2.63   2.97 -999 -999 -999 -99.9  62.6 1007.2 14.0  1.010 -99.9 -99.99 -9.99
2019/04/20 11:42 EDT    2.60   2.92 -999 -999 -999 -99.9  62.8 1007.4 13.8  1.010 -99.9 -99.99 -9.99
2019/04/20 11:48 EDT    2.55   2.88 -999 -999 -999 -99.9  62.8 1007.3 13.8  1.010 -99.9 -99.99 -9.99
2019/04/20 11:54 EDT    2.51   2.82 -999 -999 -999 -99.9  62.8 1007.3 13.8  1.010 -99.9 -99.99 -9.99
2019/04/20 12:00 EDT    2.46   2.73 -999 -999 -999 -99.9  62.8 1007.2 13.8  1.010 -99.9 -99.99 -9.99
2019/04/20 12:06 EDT    2.41   2.67 -999 -999 -999 -99.9  62.8 1007.3 13.8  1.010 -99.9 -99.99 -9.99
2019/04/20 12:12 EDT    2.36   2.59 -999 -999 -999 -99.9  62.8 1007.4 13.8  1.010 -99.9 -99.99 -9.99
2019/04/20 12:18 EDT    2.30   2.58 -999 -999 -999 -99.9  62.8 1007.3 13.5  1.010 -99.9 -99.99 -9.99
2019/04/20 12:24 EDT    2.24   2.54 -999 -999 -999 -99.9  62.8 1007.3 13.4  1.010 -99.9 -99.99 -9.99
2019/04/20 12:30 EDT    2.18   2.49 -999 -999 -999 -99.9  62.8 1007.3 13.6  1.010 -99.9 -99.99 -9.99
2019/04/20 12:36 EDT    2.12   2.44 -999 -999 -999 -99.9  62.8 1007.4 13.4  1.010 -99.9 -99.99 -9.99
2019/04/20 12:42 EDT    2.05   2.39 -999 -999 -999 -99.9  62.8 1007.4 13.9  1.010 -99.9 -99.99 -9.99
2019/04/20 12:48 EDT    1.98   2.37 -999 -999 -999 -99.9  62.8 1007.4 13.9  1.010 -99.9 -99.99 -9.99
2019/04/20 12:54 EDT    1.91   2.34 -999 -999 -999 -99.9  63.0 1007.2 13.8  1.010 -99.9 -99.99 -9.99
2019/04/20 13:00 EDT    1.84   2.31 -999 -999 -999 -99.9  63.0 1007.2 13.8  1.010 -99.9 -99.99 -9.99
2019/04/20 13:06 EDT    1.77   2.23 -999 -999 -999 -99.9  62.8 1007.3 13.9  1.010 -99.9 -99.99 -9.99
2019/04/20 13:12 EDT    1.69   2.13 -999 -999 -999 -99.9  62.8 1007.4 13.9  1.010 -99.9 -99.99 -9.99
2019/04/20 13:18 EDT    1.62   2.04 -999 -999 -999 -99.9  62.6 1007.2 14.0  1.010 -99.9 -99.99 -9.99
2019/04/20 13:24 EDT    1.54   1.98 -999 -999 -999 -99.9  62.6 1007.1 14.1  1.010 -99.9 -99.99 -9.99
2019/04/20 13:30 EDT    1.46   1.90 -999 -999 -999 -99.9  62.6 1007.2 14.1  1.010 -99.9 -99.99 -9.99
2019/04/20 13:36 EDT    1.38   1.82 -999 -999 -999 -99.9  62.6 1007.1 14.1  1.010 -99.9 -99.99 -9.99
2019/04/20 13:42 EDT    1.30   1.73 -999 -999 -999 -99.9  62.8 1006.9 13.9  1.010 -99.9 -99.99 -9.99
2019/04/20 13:48 EDT    1.22   1.66 -999 -999 -999 -99.9  63.0 1007.0 13.8  1.010 -99.9 -99.99 -9.99
2019/04/20 13:54 EDT    1.15   1.59 -999 -999 -999 -99.9  63.0 1007.0 13.8  1.010 -99.9 -99.99 -9.99
2019/04/20 14:00 EDT    1.07   1.54 -999 -999 -999 -99.9  63.0 1007.1 13.8  1.010 -99.9 -99.99 -9.99
2019/04/20 14:06 EDT    0.99   1.47 -999 -999 -999 -99.9  63.0 1007.0 13.8  1.010 -99.9 -99.99 -9.99
2019/04/20 14:12 EDT    0.91   1.40 -999 -999 -999 -99.9  62.8 1007.0 13.9  1.010 -99.9 -99.99 -9.99
2019/04/20 14:18 EDT    0.84   1.34 -999 -999 -999 -99.9  62.8 1006.9 13.9  1.010 -99.9 -99.99 -9.99
2019/04/20 14:24 EDT    0.76   1.24 -999 -999 -999 -99.9  62.8 1006.9 13.9  1.010 -99.9 -99.99 -9.99
2019/04/20 14:30 EDT    0.69   1.18 -999 -999 -999 -99.9  62.8 1006.7 13.9  1.010 -99.9 -99.99 -9.99
2019/04/20 14:36 EDT    0.61   1.09 -999 -999 -999 -99.9  63.0 1006.8 13.8  1.010 -99.9 -99.99 -9.99
2019/04/20 14:42 EDT    0.54   1.02 -999 -999 -999 -99.9  63.0 1006.8 13.9  1.010 -99.9 -99.99 -9.99
2019/04/20 14:48 EDT    0.47   0.95 -999 -999 -999 -99.9  62.8 1006.7 13.9  1.010 -99.9 -99.99 -9.99
2019/04/20 14:54 EDT    0.41   0.87 -999 -999 -999 -99.9  63.0 1006.9 13.8  1.010 -99.9 -99.99 -9.99
2019/04/20 15:00 EDT    0.34   0.80 -999 -999 -999 -99.9  63.0 1006.9 13.6  1.010 -99.9 -99.99 -9.99
2019/04/20 15:06 EDT    0.28   0.72 -999 -999 -999 -99.9  63.0 1006.8 13.7  1.010 -99.9 -99.99 -9.99
2019/04/20 15:12 EDT    0.22   0.66 -999 -999 -999 -99.9  63.1 1006.8 13.8  1.010 -99.9 -99.99 -9.99
2019/04/20 15:18 EDT    0.16   0.59 -999 -999 -999 -99.9  63.3 1006.6 13.7  1.010 -99.9 -99.99 -9.99
2019/04/20 15:24 EDT    0.11   0.55 -999 -999 -999 -99.9  63.3 1006.7 13.7  1.010 -99.9 -99.99 -9.99
2019/04/20 15:30 EDT    0.06   0.51 -999 -999 -999 -99.9  63.3 1006.6 13.7  1.010 -99.9 -99.99 -9.99
2019/04/20 15:36 EDT    0.01   0.43 -999 -999 -999 -99.9  63.3 1006.7 13.7  1.010 -99.9 -99.99 -9.99
2019/04/20 15:42 EDT   -0.03   0.38 -999 -999 -999 -99.9  63.3 1006.7 13.7  1.010 -99.9 -99.99 -9.99
2019/04/20 15:48 EDT   -0.07   0.34 -999 -999 -999 -99.9  63.0 1006.6 13.8  1.010 -99.9 -99.99 -9.99
2019/04/20 15:54 EDT   -0.11   0.33 -999 -999 -999 -99.9  63.0 1006.6 13.9  1.010 -99.9 -99.99 -9.99
2019/04/20 16:00 EDT   -0.14   0.27 -999 -999 -999 -99.9  63.0 1006.5 14.0  1.010 -99.9 -99.99 -9.99
2019/04/20 16:06 EDT   -0.17   0.24 -999 -999 -999 -99.9  63.0 1006.3 14.0  1.010 -99.9 -99.99 -9.99
2019/04/20 16:12 EDT   -0.19   0.19 -999 -999 -999 -99.9  63.0 1006.4 14.0  1.010 -99.9 -99.99 -9.99
2019/04/20 16:18 EDT   -0.21   0.15 -999 -999 -999 -99.9  63.0 1006.5 14.0  1.010 -99.9 -99.99 -9.99
2019/04/20 16:24 EDT   -0.23   0.13 -999 -999 -999 -99.9  63.0 1006.6 14.0  1.010 -99.9 -99.99 -9.99
2019/04/20 16:30 EDT   -0.24   0.11 -999 -999 -999 -99.9  62.8 1006.6 14.0  1.010 -99.9 -99.99 -9.99
2019/04/20 16:36 EDT   -0.25   0.08 -999 -999 -999 -99.9  63.0 1006.8 14.0  1.010 -99.9 -99.99 -9.99
2019/04/20 16:42 EDT   -0.25   0.11 -999 -999 -999 -99.9  63.0 1006.9 14.1  1.010 -99.9 -99.99 -9.99
2019/04/20 16:48 EDT   -0.25   0.12 -999 -999 -999 -99.9  63.0 1006.9 14.1  1.010 -99.9 -99.99 -9.99
2019/04/20 16:54 EDT   -0.24   0.13 -999 -999 -999 -99.9  63.0 1007.0 14.1  1.010 -99.9 -99.99 -9.99
2019/04/20 17:00 EDT   -0.24   0.08 -999 -999 -999 -99.9  62.8 1007.1 14.1  1.010 -99.9 -99.99 -9.99
2019/04/20 17:06 EDT   -0.22   0.20 -999 -999 -999 -99.9  63.0 1007.1 14.1  1.010 -99.9 -99.99 -9.99
2019/04/20 17:12 EDT   -0.20   0.19 -999 -999 -999 -99.9  63.1 1007.0 14.0  1.010 -99.9 -99.99 -9.99
2019/04/20 17:18 EDT   -0.18   0.28 -999 -999 -999 -99.9  63.0 1007.1 14.1  1.010 -99.9 -99.99 -9.99
2019/04/20 17:24 EDT   -0.15   0.28 -999 -999 -999 -99.9  62.8 1007.2 14.2  1.010 -99.9 -99.99 -9.99
2019/04/20 17:30 EDT   -0.12   0.27 -999 -999 -999 -99.9  62.8 1007.3 14.2  1.010 -99.9 -99.99 -9.99
2019/04/20 17:36 EDT   -0.09   0.38 -999 -999 -999 -99.9  62.8 1007.4 14.2  1.011 -99.9 -99.99 -9.99
2019/04/20 17:42 EDT   -0.05   0.40 -999 -999 -999 -99.9  62.6 1007.4 14.4  1.011 -99.9 -99.99 -9.99
2019/04/20 17:48 EDT   -0.00   0.46 -999 -999 -999 -99.9  62.6 1007.4 14.4  1.011 -99.9 -99.99 -9.99
2019/04/20 17:54 EDT    0.04   0.46 -999 -999 -999 -99.9  62.6 1007.6 14.5  1.011 -99.9 -99.99 -9.99
2019/04/20 18:00 EDT    0.09   0.52 -999 -999 -999 -99.9  62.4 1007.7 14.6  1.011 -99.9 -99.99 -9.99
2019/04/20 18:06 EDT    0.15   0.58 -999 -999 -999 -99.9  62.4 1007.5 14.6  1.011 -99.9 -99.99 -9.99
2019/04/20 18:12 EDT    0.20   0.63 -999 -999 -999 -99.9  62.4 1007.5 14.6  1.011 -99.9 -99.99 -9.99
2019/04/20 18:18 EDT    0.27   0.72 -999 -999 -999 -99.9  62.4 1007.6 14.7  1.011 -99.9 -99.99 -9.99
2019/04/20 18:24 EDT    0.33   0.77 -999 -999 -999 -99.9  62.4 1007.7 14.6  1.011 -99.9 -99.99 -9.99
2019/04/20 18:30 EDT    0.40   0.85 -999 -999 -999 -99.9  62.4 1007.8 14.7  1.011 -99.9 -99.99 -9.99
2019/04/20 18:36 EDT    0.47   0.92 -999 -999 -999 -99.9  62.4 1007.8 14.7  1.011 -99.9 -99.99 -9.99
2019/04/20 18:42 EDT    0.54   0.98 -999 -999 -999 -99.9  63.1 1007.9 14.0  1.010 -99.9 -99.99 -9.99
2019/04/20 18:48 EDT    0.61   1.00 -999 -999 -999 -99.9  63.7 1007.9 13.4  1.010 -99.9 -99.99 -9.99
2019/04/20 18:54 EDT    0.69   1.12 -999 -999 -999 -99.9  63.7 1008.0 13.2  1.010 -99.9 -99.99 -9.99
2019/04/20 19:00 EDT    0.77   1.21 -999 -999 -999 -99.9  63.7 1008.0 13.2  1.010 -99.9 -99.99 -9.99
2019/04/20 19:06 EDT    0.85   1.27 -999 -999 -999 -99.9  63.7 1008.1 13.3  1.010 -99.9 -99.99 -9.99
2019/04/20 19:12 EDT    0.93   1.33 -999 -999 -999 -99.9  63.5 1008.2 13.4  1.010 -99.9 -99.99 -9.99
2019/04/20 19:18 EDT    1.01   1.42 -999 -999 -999 -99.9  63.7 1008.2 13.4  1.010 -99.9 -99.99 -9.99
2019/04/20 19:24 EDT    1.10   1.48 -999 -999 -999 -99.9  63.7 1008.2 13.4  1.010 -99.9 -99.99 -9.99
2019/04/20 19:30 EDT    1.18   1.57 -999 -999 -999 -99.9  63.7 1008.1 13.4  1.010 -99.9 -99.99 -9.99
2019/04/20 19:36 EDT    1.27   1.62 -999 -999 -999 -99.9  63.7 1008.1 13.4  1.010 -99.9 -99.99 -9.99
2019/04/20 19:42 EDT    1.35   1.72 -999 -999 -999 -99.9  63.7 1008.1 13.4  1.010 -99.9 -99.99 -9.99
2019/04/20 19:48 EDT    1.44   1.78 -999 -999 -999 -99.9  63.7 1008.1 13.3  1.010 -99.9 -99.99 -9.99
2019/04/20 19:54 EDT    1.53   1.86 -999 -999 -999 -99.9  63.7 1008.2 13.3  1.010 -99.9 -99.99 -9.99
2019/04/20 20:00 EDT    1.62   1.94 -999 -999 -999 -99.9  63.7 1008.3 13.3  1.010 -99.9 -99.99 -9.99
2019/04/20 20:06 EDT    1.70   2.02 -999 -999 -999 -99.9  63.7 1008.5 13.3  1.010 -99.9 -99.99 -9.99
2019/04/20 20:12 EDT    1.79   2.10 -999 -999 -999 -99.9  63.7 1008.5 13.4  1.010 -99.9 -99.99 -9.99
2019/04/20 20:18 EDT    1.87   2.16 -999 -999 -999 -99.9  63.7 1008.6 13.4  1.010 -99.9 -99.99 -9.99
2019/04/20 20:24 EDT    1.96   2.23 -999 -999 -999 -99.9  63.5 1008.7 13.4  1.010 -99.9 -99.99 -9.99
2019/04/20 20:30 EDT    2.04   2.33 -999 -999 -999 -99.9  63.5 1008.7 13.5  1.010 -99.9 -99.99 -9.99
2019/04/20 20:36 EDT    2.12   2.41 -999 -999 -999 -99.9  63.5 1008.9 13.4  1.010 -99.9 -99.99 -9.99
2019/04/20 20:42 EDT    2.20   2.49 -999 -999 -999 -99.9  63.5 1009.0 13.6  1.010 -99.9 -99.99 -9.99
2019/04/20 20:48 EDT    2.28   2.56 -999 -999 -999 -99.9  63.5 1009.0 13.6  1.010 -99.9 -99.99 -9.99
2019/04/20 20:54 EDT    2.35   2.65 -999 -999 -999 -99.9  63.7 1009.1 13.4  1.010 -99.9 -99.99 -9.99
2019/04/20 21:00 EDT    2.43   2.73 -999 -999 -999 -99.9  63.7 1009.2 13.4  1.010 -99.9 -99.99 -9.99
2019/04/20 21:06 EDT    2.50   2.82 -999 -999 -999 -99.9  63.7 1009.3 13.4  1.010 -99.9 -99.99 -9.99
2019/04/20 21:12 EDT    2.57   2.91 -999 -999 -999 -99.9  63.7 1009.2 13.4  1.010 -99.9 -99.99 -9.99
2019/04/20 21:18 EDT    2.64   2.99 -999 -999 -999 -99.9  63.5 1009.3 13.5  1.010 -99.9 -99.99 -9.99
2019/04/20 21:24 EDT    2.70   3.06 -999 -999 -999 -99.9  63.5 1009.4 13.6  1.010 -99.9 -99.99 -9.99
2019/04/20 21:30 EDT    2.76   3.13 -999 -999 -999 -99.9  63.5 1009.5 13.5  1.010 -99.9 -99.99 -9.99
2019/04/20 21:36 EDT    2.82   3.19 -999 -999 -999 -99.9  63.5 1009.6 13.5  1.010 -99.9 -99.99 -9.99
2019/04/20 21:42 EDT    2.87   3.26 -999 -999 -999 -99.9  63.5 1009.6 13.4  1.010 -99.9 -99.99 -9.99
2019/04/20 21:48 EDT    2.92   3.30 -999 -999 -999 -99.9  63.5 1009.8 13.5  1.010 -99.9 -99.99 -9.99
2019/04/20 21:54 EDT    2.97   3.35 -999 -999 -999 -99.9  63.5 1009.9 13.6  1.010 -99.9 -99.99 -9.99
2019/04/20 22:00 EDT    3.01   3.39 -999 -999 -999 -99.9  63.5 1009.9 13.5  1.010 -99.9 -99.99 -9.99
2019/04/20 22:06 EDT    3.05   3.43 -999 -999 -999 -99.9  63.5 1010.1 13.5  1.010 -99.9 -99.99 -9.99
2019/04/20 22:12 EDT    3.09   3.46 -999 -999 -999 -99.9  63.5 1010.1 13.5  1.010 -99.9 -99.99 -9.99
2019/04/20 22:18 EDT    3.12   3.49 -999 -999 -999 -99.9  63.3 1010.3 13.7  1.010 -99.9 -99.99 -9.99
2019/04/20 22:24 EDT    3.15   3.52 -999 -999 -999 -99.9  63.1 1010.4 13.9  1.010 -99.9 -99.99 -9.99
2019/04/20 22:30 EDT    3.17   3.55 -999 -999 -999 -99.9  63.5 1010.5 13.6  1.010 -99.9 -99.99 -9.99
2019/04/20 22:36 EDT    3.19   3.57 -999 -999 -999 -99.9  63.5 1010.6 13.6  1.010 -99.9 -99.99 -9.99
2019/04/20 22:42 EDT    3.21   3.58 -999 -999 -999 -99.9  63.5 1010.6 13.6  1.010 -99.9 -99.99 -9.99
2019/04/20 22:48 EDT    3.22   3.64 -999 -999 -999 -99.9  63.3 1010.7 13.8  1.010 -99.9 -99.99 -9.99
2019/04/20 22:54 EDT    3.23   3.59 -999 -999 -999 -99.9  63.1 1010.8 13.9  1.010 -99.9 -99.99 -9.99
2019/04/20 23:00 EDT    3.23   3.58 -999 -999 -999 -99.9  63.3 1010.9 13.7  1.010 -99.9 -99.99 -9.99
2019/04/20 23:06 EDT    3.23   3.59 -999 -999 -999 -99.9  63.5 1011.0 13.6  1.010 -99.9 -99.99 -9.99
2019/04/20 23:12 EDT    3.23   3.65 -999 -999 -999 -99.9  63.5 1010.8 13.5  1.010 -99.9 -99.99 -9.99
2019/04/20 23:18 EDT    3.22   3.59 -999 -999 -999 -99.9  63.5 1011.0 13.5  1.010 -99.9 -99.99 -9.99
2019/04/20 23:24 EDT    3.20   3.57 -999 -999 -999 -99.9  63.3 1010.9 13.7  1.010 -99.9 -99.99 -9.99
2019/04/20 23:30 EDT    3.19   3.55 -999 -999 -999 -99.9  63.5 1010.9 13.5  1.010 -99.9 -99.99 -9.99
2019/04/20 23:36 EDT    3.17   3.53 -999 -999 -999 -99.9  63.5 1010.7 13.5  1.010 -99.9 -99.99 -9.99
2019/04/20 23:42 EDT    3.14   3.51 -999 -999 -999 -99.9  63.5 1011.0 13.5  1.010 -99.9 -99.99 -9.99
2019/04/20 23:48 EDT    3.11   3.49 -999 -999 -999 -99.9  63.5 1011.2 13.5  1.010 -99.9 -99.99 -9.99
2019/04/20 23:54 EDT    3.08   3.47 -999 -999 -999 -99.9  63.3 1011.3 13.7  1.010 -99.9 -99.99 -9.99
2019/04/21 00:00 EDT    3.04   3.44 -999 -999 -999 -99.9  63.1 1011.3 13.8  1.010 -99.9 -99.99 -9.99
2019/04/21 00:06 EDT    3.00   3.40 -999 -999 -999 -99.9  63.0 1011.2 14.0  1.010 -99.9 -99.99 -9.99
2019/04/21 00:12 EDT    2.96   3.38 -999 -999 -999 -99.9  63.1 1011.3 13.9  1.010 -99.9 -99.99 -9.99
2019/04/21 00:18 EDT    2.91   3.31 -999 -999 -999 -99.9  63.1 1011.6 13.8  1.010 -99.9 -99.99 -9.99
2019/04/21 00:24 EDT    2.86   3.26 -999 -999 -999 -99.9  63.3 1011.8 13.7  1.010 -99.9 -99.99 -9.99
2019/04/21 00:30 EDT    2.80   3.23 -999 -999 -999 -99.9  63.3 1011.8 13.6  1.010 -99.9 -99.99 -9.99
2019/04/21 00:36 EDT    2.75   3.20 -999 -999 -999 -99.9  63.3 1012.0 13.6  1.010 -99.9 -99.99 -9.99
2019/04/21 00:42 EDT    2.68   3.13 -999 -999 -999 -99.9  63.3 1011.9 13.6  1.010 -99.9 -99.99 -9.99
2019/04/21 00:48 EDT    2.62   3.07 -999 -999 -999 -99.9  63.3 1011.9 13.5  1.010 -99.9 -99.99 -9.99
2019/04/21 00:54 EDT    2.55 -99.99 -999 -999 -999 -99.9 -99.9 -999.9 -9.9 -9.999 -99.9 -99.99 -9.99
2019/04/21 01:00 EDT    2.49 -99.99 -999 -999 -999 -99.9 -99.9 -999.9 -9.9 -9.999 -99.9 -99.99 -9.99

Revised: 08/08/2018
NOAA / National Ocean Service
Web site owner: Center for Operational Oceanographic Products and Services